
<gpx xmlns="http://www.topografix.com/GPX/1/1" xmlns:gpxx="http://www.garmin.com/xmlschemas/GpxExtensions/v3" xmlns:xsi="http://www.w3.org/2001/XMLSchema-instance" version="1.1" creator="Adze - https://getadze.com/" xsi:schemaLocation="http://www.topografix.com/GPX/1/1 http://www.topografix.com/GPX/1/1/gpx.xsd http://www.garmin.com/xmlschemas/GpxExtensions/v3 http://www.garmin.com/xmlschemas/GpxExtensionsv3.xsd">
    <metadata>
        <name>Untitled Document</name>
        <time>2018-03-05T02:11:01.079Z</time>
    </metadata>
    <trk>
        <name>July 2004</name>
        <extensions>
            <gpxx:TrackExtension>
                <gpxx:DisplayColor>Magenta</gpxx:DisplayColor>
            </gpxx:TrackExtension>
        </extensions>
        <trkseg>
            <trkpt lon="100.802929" lat="13.850906">
                <ele>23.689575</ele>
                <time>2004-07-31T06:16:07Z</time>
            </trkpt>
            <trkpt lon="100.802886" lat="13.850949">
                <ele>12.153809</ele>
                <time>2004-07-31T06:30:49Z</time>
            </trkpt>
            <trkpt lon="100.802865" lat="13.850949">
                <ele>4.943848</ele>
                <time>2004-07-31T06:31:13Z</time>
            </trkpt>
            <trkpt lon="100.802865" lat="13.850949">
                <ele>2.540649</ele>
                <time>2004-07-31T06:32:19Z</time>
            </trkpt>
            <trkpt lon="100.802865" lat="13.850949">
                <ele>4.943848</ele>
                <time>2004-07-31T06:36:44Z</time>
            </trkpt>
            <trkpt lon="100.802822" lat="13.850927">
                <ele>1.098633</ele>
                <time>2004-07-31T06:38:34Z</time>
            </trkpt>
            <trkpt lon="100.802779" lat="13.850927">
                <ele>1.098633</ele>
                <time>2004-07-31T06:39:05Z</time>
            </trkpt>
            <trkpt lon="100.802779" lat="13.850927">
                <ele>1.098633</ele>
                <time>2004-07-31T06:41:23Z</time>
            </trkpt>
            <trkpt lon="100.802736" lat="13.850906">
                <ele>0.137451</ele>
                <time>2004-07-31T06:41:44Z</time>
            </trkpt>
            <trkpt lon="100.802758" lat="13.850906">
                <ele>3.982666</ele>
                <time>2004-07-31T06:43:21Z</time>
            </trkpt>
            <trkpt lon="100.802779" lat="13.850906">
                <ele>3.982666</ele>
                <time>2004-07-31T06:43:26Z</time>
            </trkpt>
            <trkpt lon="100.802951" lat="13.850863">
                <ele>3.021240</ele>
                <time>2004-07-31T06:43:37Z</time>
            </trkpt>
            <trkpt lon="100.803144" lat="13.850241">
                <ele>3.021240</ele>
                <time>2004-07-31T06:43:53Z</time>
            </trkpt>
            <trkpt lon="100.803380" lat="13.849683">
                <ele>2.540649</ele>
                <time>2004-07-31T06:44:09Z</time>
            </trkpt>
            <trkpt lon="100.803401" lat="13.849661">
                <ele>2.540649</ele>
                <time>2004-07-31T06:44:10Z</time>
            </trkpt>
            <trkpt lon="100.804131" lat="13.850069">
                <ele>2.540649</ele>
                <time>2004-07-31T06:44:24Z</time>
            </trkpt>
            <trkpt lon="100.805526" lat="13.850884">
                <ele>3.021240</ele>
                <time>2004-07-31T06:44:44Z</time>
            </trkpt>
            <trkpt lon="100.806620" lat="13.851507">
                <ele>2.060059</ele>
                <time>2004-07-31T06:45:02Z</time>
            </trkpt>
            <trkpt lon="100.807071" lat="13.851786">
                <ele>1.579346</ele>
                <time>2004-07-31T06:45:14Z</time>
            </trkpt>
            <trkpt lon="100.807006" lat="13.852193">
                <ele>2.540649</ele>
                <time>2004-07-31T06:45:24Z</time>
            </trkpt>
            <trkpt lon="100.807199" lat="13.852987">
                <ele>2.540649</ele>
                <time>2004-07-31T06:45:40Z</time>
            </trkpt>
            <trkpt lon="100.807221" lat="13.853180">
                <ele>2.540649</ele>
                <time>2004-07-31T06:45:50Z</time>
            </trkpt>
            <trkpt lon="100.807221" lat="13.853245">
                <ele>3.501953</ele>
                <time>2004-07-31T06:46:30Z</time>
            </trkpt>
            <trkpt lon="100.807242" lat="13.853331">
                <ele>6.385864</ele>
                <time>2004-07-31T06:46:41Z</time>
            </trkpt>
            <trkpt lon="100.807221" lat="13.853502">
                <ele>6.385864</ele>
                <time>2004-07-31T06:46:57Z</time>
            </trkpt>
            <trkpt lon="100.807221" lat="13.853524">
                <ele>6.866455</ele>
                <time>2004-07-31T06:47:06Z</time>
            </trkpt>
            <trkpt lon="100.807414" lat="13.853567">
                <ele>3.982666</ele>
                <time>2004-07-31T06:47:18Z</time>
            </trkpt>
            <trkpt lon="100.807393" lat="13.854146">
                <ele>4.463257</ele>
                <time>2004-07-31T06:47:45Z</time>
            </trkpt>
            <trkpt lon="100.807371" lat="13.854210">
                <ele>3.021240</ele>
                <time>2004-07-31T06:47:58Z</time>
            </trkpt>
            <trkpt lon="100.807393" lat="13.854361">
                <ele>-4.669312</ele>
                <time>2004-07-31T06:49:26Z</time>
            </trkpt>
            <trkpt lon="100.807478" lat="13.854382">
                <ele>-3.707886</ele>
                <time>2004-07-31T06:49:30Z</time>
            </trkpt>
            <trkpt lon="100.808144" lat="13.854468">
                <ele>-3.227295</ele>
                <time>2004-07-31T06:49:45Z</time>
            </trkpt>
            <trkpt lon="100.808980" lat="13.854532">
                <ele>-0.824097</ele>
                <time>2004-07-31T06:49:58Z</time>
            </trkpt>
            <trkpt lon="100.809152" lat="13.854597">
                <ele>-0.343384</ele>
                <time>2004-07-31T06:50:01Z</time>
            </trkpt>
            <trkpt lon="100.810483" lat="13.854725">
                <ele>0.137451</ele>
                <time>2004-07-31T06:50:20Z</time>
            </trkpt>
            <trkpt lon="100.812371" lat="13.854897">
                <ele>2.540649</ele>
                <time>2004-07-31T06:50:45Z</time>
            </trkpt>
            <trkpt lon="100.813658" lat="13.855004">
                <ele>3.501953</ele>
                <time>2004-07-31T06:51:03Z</time>
            </trkpt>
            <trkpt lon="100.814795" lat="13.855090">
                <ele>4.463257</ele>
                <time>2004-07-31T06:51:20Z</time>
            </trkpt>
            <trkpt lon="100.815504" lat="13.855155">
                <ele>2.060059</ele>
                <time>2004-07-31T06:51:32Z</time>
            </trkpt>
            <trkpt lon="100.817349" lat="13.855305">
                <ele>1.098633</ele>
                <time>2004-07-31T06:51:58Z</time>
            </trkpt>
            <trkpt lon="100.818851" lat="13.855455">
                <ele>1.579346</ele>
                <time>2004-07-31T06:52:20Z</time>
            </trkpt>
            <trkpt lon="100.820267" lat="13.855627">
                <ele>0.618042</ele>
                <time>2004-07-31T06:52:42Z</time>
            </trkpt>
            <trkpt lon="100.822005" lat="13.855841">
                <ele>3.021240</ele>
                <time>2004-07-31T06:53:08Z</time>
            </trkpt>
            <trkpt lon="100.823507" lat="13.856013">
                <ele>3.501953</ele>
                <time>2004-07-31T06:53:30Z</time>
            </trkpt>
            <trkpt lon="100.824902" lat="13.856292">
                <ele>1.579346</ele>
                <time>2004-07-31T06:53:50Z</time>
            </trkpt>
            <trkpt lon="100.825374" lat="13.856421">
                <ele>1.579346</ele>
                <time>2004-07-31T06:53:57Z</time>
            </trkpt>
            <trkpt lon="100.825503" lat="13.856571">
                <ele>1.098633</ele>
                <time>2004-07-31T06:54:01Z</time>
            </trkpt>
            <trkpt lon="100.825503" lat="13.856807">
                <ele>-0.343384</ele>
                <time>2004-07-31T06:54:05Z</time>
            </trkpt>
            <trkpt lon="100.825524" lat="13.857086">
                <ele>-0.343384</ele>
                <time>2004-07-31T06:54:12Z</time>
            </trkpt>
            <trkpt lon="100.825524" lat="13.857021">
                <ele>2.540649</ele>
                <time>2004-07-31T06:54:25Z</time>
            </trkpt>
            <trkpt lon="100.825524" lat="13.857043">
                <ele>2.060059</ele>
                <time>2004-07-31T06:54:31Z</time>
            </trkpt>
            <trkpt lon="100.825567" lat="13.857429">
                <ele>2.540649</ele>
                <time>2004-07-31T06:54:43Z</time>
            </trkpt>
            <trkpt lon="100.825589" lat="13.857837">
                <ele>3.501953</ele>
                <time>2004-07-31T06:54:51Z</time>
            </trkpt>
            <trkpt lon="100.825696" lat="13.859274">
                <ele>5.905273</ele>
                <time>2004-07-31T06:55:17Z</time>
            </trkpt>
            <trkpt lon="100.825696" lat="13.860304">
                <ele>7.347168</ele>
                <time>2004-07-31T06:55:37Z</time>
            </trkpt>
            <trkpt lon="100.825675" lat="13.861377">
                <ele>6.866455</ele>
                <time>2004-07-31T06:55:57Z</time>
            </trkpt>
            <trkpt lon="100.825696" lat="13.862343">
                <ele>6.866455</ele>
                <time>2004-07-31T06:56:15Z</time>
            </trkpt>
            <trkpt lon="100.826147" lat="13.862772">
                <ele>5.424561</ele>
                <time>2004-07-31T06:56:26Z</time>
            </trkpt>
            <trkpt lon="100.826511" lat="13.863244">
                <ele>3.982666</ele>
                <time>2004-07-31T06:56:36Z</time>
            </trkpt>
            <trkpt lon="100.826554" lat="13.863373">
                <ele>3.982666</ele>
                <time>2004-07-31T06:56:39Z</time>
            </trkpt>
            <trkpt lon="100.826747" lat="13.863780">
                <ele>2.540649</ele>
                <time>2004-07-31T06:56:52Z</time>
            </trkpt>
            <trkpt lon="100.826747" lat="13.863802">
                <ele>3.501953</ele>
                <time>2004-07-31T06:57:02Z</time>
            </trkpt>
            <trkpt lon="100.826790" lat="13.863823">
                <ele>4.463257</ele>
                <time>2004-07-31T06:57:18Z</time>
            </trkpt>
            <trkpt lon="100.826855" lat="13.863823">
                <ele>3.501953</ele>
                <time>2004-07-31T06:57:24Z</time>
            </trkpt>
            <trkpt lon="100.827155" lat="13.863759">
                <ele>2.540649</ele>
                <time>2004-07-31T06:57:38Z</time>
            </trkpt>
            <trkpt lon="100.827584" lat="13.863845">
                <ele>3.501953</ele>
                <time>2004-07-31T06:57:51Z</time>
            </trkpt>
            <trkpt lon="100.827992" lat="13.864038">
                <ele>4.463257</ele>
                <time>2004-07-31T06:58:05Z</time>
            </trkpt>
            <trkpt lon="100.828056" lat="13.864059">
                <ele>3.982666</ele>
                <time>2004-07-31T06:58:15Z</time>
            </trkpt>
            <trkpt lon="100.827692" lat="13.863909">
                <ele>3.501953</ele>
                <time>2004-07-31T06:58:29Z</time>
            </trkpt>
            <trkpt lon="100.827498" lat="13.863823">
                <ele>2.540649</ele>
                <time>2004-07-31T06:58:41Z</time>
            </trkpt>
            <trkpt lon="100.827262" lat="13.863759">
                <ele>2.540649</ele>
                <time>2004-07-31T06:58:52Z</time>
            </trkpt>
            <trkpt lon="100.827091" lat="13.863759">
                <ele>2.060059</ele>
                <time>2004-07-31T06:59:04Z</time>
            </trkpt>
            <trkpt lon="100.826919" lat="13.863802">
                <ele>1.579346</ele>
                <time>2004-07-31T06:59:29Z</time>
            </trkpt>
            <trkpt lon="100.826790" lat="13.863823">
                <ele>1.579346</ele>
                <time>2004-07-31T06:59:36Z</time>
            </trkpt>
            <trkpt lon="100.826640" lat="13.863566">
                <ele>1.579346</ele>
                <time>2004-07-31T06:59:49Z</time>
            </trkpt>
            <trkpt lon="100.826468" lat="13.863137">
                <ele>1.579346</ele>
                <time>2004-07-31T07:00:03Z</time>
            </trkpt>
            <trkpt lon="100.826018" lat="13.862622">
                <ele>1.098633</ele>
                <time>2004-07-31T07:00:22Z</time>
            </trkpt>
            <trkpt lon="100.825589" lat="13.862343">
                <ele>1.579346</ele>
                <time>2004-07-31T07:00:37Z</time>
            </trkpt>
            <trkpt lon="100.825353" lat="13.862193">
                <ele>1.098633</ele>
                <time>2004-07-31T07:00:49Z</time>
            </trkpt>
            <trkpt lon="100.825074" lat="13.862000">
                <ele>1.098633</ele>
                <time>2004-07-31T07:01:02Z</time>
            </trkpt>
            <trkpt lon="100.824988" lat="13.861935">
                <ele>-1.304688</ele>
                <time>2004-07-31T07:01:12Z</time>
            </trkpt>
            <trkpt lon="100.824988" lat="13.861935">
                <ele>-1.304688</ele>
                <time>2004-07-31T07:01:20Z</time>
            </trkpt>
            <trkpt lon="100.825160" lat="13.862064">
                <ele>2.060059</ele>
                <time>2004-07-31T07:01:35Z</time>
            </trkpt>
            <trkpt lon="100.825503" lat="13.862278">
                <ele>3.501953</ele>
                <time>2004-07-31T07:01:48Z</time>
            </trkpt>
            <trkpt lon="100.825782" lat="13.862450">
                <ele>3.021240</ele>
                <time>2004-07-31T07:02:01Z</time>
            </trkpt>
            <trkpt lon="100.826147" lat="13.862793">
                <ele>2.540649</ele>
                <time>2004-07-31T07:02:13Z</time>
            </trkpt>
            <trkpt lon="100.826404" lat="13.863094">
                <ele>2.540649</ele>
                <time>2004-07-31T07:02:25Z</time>
            </trkpt>
            <trkpt lon="100.826533" lat="13.863287">
                <ele>3.501953</ele>
                <time>2004-07-31T07:02:38Z</time>
            </trkpt>
            <trkpt lon="100.826640" lat="13.863544">
                <ele>2.540649</ele>
                <time>2004-07-31T07:02:52Z</time>
            </trkpt>
            <trkpt lon="100.826705" lat="13.863716">
                <ele>3.501953</ele>
                <time>2004-07-31T07:03:12Z</time>
            </trkpt>
            <trkpt lon="100.826747" lat="13.863780">
                <ele>3.982666</ele>
                <time>2004-07-31T07:03:18Z</time>
            </trkpt>
            <trkpt lon="100.826790" lat="13.863780">
                <ele>3.501953</ele>
                <time>2004-07-31T07:03:22Z</time>
            </trkpt>
            <trkpt lon="100.826876" lat="13.863823">
                <ele>3.021240</ele>
                <time>2004-07-31T07:03:36Z</time>
            </trkpt>
            <trkpt lon="100.826919" lat="13.863931">
                <ele>4.463257</ele>
                <time>2004-07-31T07:03:52Z</time>
            </trkpt>
            <trkpt lon="100.827048" lat="13.863995">
                <ele>1.098633</ele>
                <time>2004-07-31T07:04:00Z</time>
            </trkpt>
            <trkpt lon="100.827370" lat="13.863974">
                <ele>2.060059</ele>
                <time>2004-07-31T07:04:09Z</time>
            </trkpt>
            <trkpt lon="100.827541" lat="13.864059">
                <ele>2.540649</ele>
                <time>2004-07-31T07:04:13Z</time>
            </trkpt>
            <trkpt lon="100.827799" lat="13.864167">
                <ele>3.501953</ele>
                <time>2004-07-31T07:04:19Z</time>
            </trkpt>
            <trkpt lon="100.828485" lat="13.864338">
                <ele>3.982666</ele>
                <time>2004-07-31T07:04:33Z</time>
            </trkpt>
            <trkpt lon="100.828657" lat="13.864360">
                <ele>4.463257</ele>
                <time>2004-07-31T07:04:36Z</time>
            </trkpt>
            <trkpt lon="100.828807" lat="13.864381">
                <ele>5.424561</ele>
                <time>2004-07-31T07:04:40Z</time>
            </trkpt>
            <trkpt lon="100.828829" lat="13.864553">
                <ele>5.905273</ele>
                <time>2004-07-31T07:04:45Z</time>
            </trkpt>
            <trkpt lon="100.829086" lat="13.865047">
                <ele>5.905273</ele>
                <time>2004-07-31T07:04:56Z</time>
            </trkpt>
            <trkpt lon="100.829601" lat="13.865840">
                <ele>4.943848</ele>
                <time>2004-07-31T07:05:14Z</time>
            </trkpt>
            <trkpt lon="100.830095" lat="13.866570">
                <ele>4.463257</ele>
                <time>2004-07-31T07:05:32Z</time>
            </trkpt>
            <trkpt lon="100.830245" lat="13.866677">
                <ele>3.982666</ele>
                <time>2004-07-31T07:05:36Z</time>
            </trkpt>
            <trkpt lon="100.830996" lat="13.867192">
                <ele>3.021240</ele>
                <time>2004-07-31T07:05:57Z</time>
            </trkpt>
            <trkpt lon="100.831618" lat="13.867793">
                <ele>3.501953</ele>
                <time>2004-07-31T07:06:14Z</time>
            </trkpt>
            <trkpt lon="100.832176" lat="13.868287">
                <ele>3.021240</ele>
                <time>2004-07-31T07:06:31Z</time>
            </trkpt>
            <trkpt lon="100.832434" lat="13.868415">
                <ele>3.021240</ele>
                <time>2004-07-31T07:06:43Z</time>
            </trkpt>
            <trkpt lon="100.832455" lat="13.868458">
                <ele>3.021240</ele>
                <time>2004-07-31T07:06:46Z</time>
            </trkpt>
            <trkpt lon="100.832605" lat="13.868544">
                <ele>2.540649</ele>
                <time>2004-07-31T07:06:52Z</time>
            </trkpt>
            <trkpt lon="100.833399" lat="13.868673">
                <ele>2.060059</ele>
                <time>2004-07-31T07:07:11Z</time>
            </trkpt>
            <trkpt lon="100.833592" lat="13.868651">
                <ele>2.540649</ele>
                <time>2004-07-31T07:07:16Z</time>
            </trkpt>
            <trkpt lon="100.833807" lat="13.868694">
                <ele>3.501953</ele>
                <time>2004-07-31T07:07:21Z</time>
            </trkpt>
            <trkpt lon="100.833871" lat="13.868823">
                <ele>3.982666</ele>
                <time>2004-07-31T07:07:28Z</time>
            </trkpt>
            <trkpt lon="100.834022" lat="13.868887">
                <ele>3.982666</ele>
                <time>2004-07-31T07:07:32Z</time>
            </trkpt>
            <trkpt lon="100.834751" lat="13.868887">
                <ele>3.501953</ele>
                <time>2004-07-31T07:07:47Z</time>
            </trkpt>
            <trkpt lon="100.834987" lat="13.868887">
                <ele>3.982666</ele>
                <time>2004-07-31T07:07:52Z</time>
            </trkpt>
            <trkpt lon="100.835073" lat="13.869016">
                <ele>3.982666</ele>
                <time>2004-07-31T07:07:59Z</time>
            </trkpt>
            <trkpt lon="100.834901" lat="13.869295">
                <ele>4.943848</ele>
                <time>2004-07-31T07:08:12Z</time>
            </trkpt>
            <trkpt lon="100.834751" lat="13.869381">
                <ele>3.982666</ele>
                <time>2004-07-31T07:08:17Z</time>
            </trkpt>
            <trkpt lon="100.834644" lat="13.869982">
                <ele>2.540649</ele>
                <time>2004-07-31T07:08:36Z</time>
            </trkpt>
            <trkpt lon="100.834601" lat="13.870733">
                <ele>2.060059</ele>
                <time>2004-07-31T07:08:56Z</time>
            </trkpt>
            <trkpt lon="100.834579" lat="13.871205">
                <ele>2.540649</ele>
                <time>2004-07-31T07:09:12Z</time>
            </trkpt>
            <trkpt lon="100.834558" lat="13.871741">
                <ele>2.540649</ele>
                <time>2004-07-31T07:09:28Z</time>
            </trkpt>
            <trkpt lon="100.834537" lat="13.872535">
                <ele>2.060059</ele>
                <time>2004-07-31T07:09:50Z</time>
            </trkpt>
            <trkpt lon="100.834515" lat="13.873415">
                <ele>0.137451</ele>
                <time>2004-07-31T07:10:13Z</time>
            </trkpt>
            <trkpt lon="100.834472" lat="13.874037">
                <ele>1.579346</ele>
                <time>2004-07-31T07:10:29Z</time>
            </trkpt>
            <trkpt lon="100.834451" lat="13.874574">
                <ele>2.540649</ele>
                <time>2004-07-31T07:10:46Z</time>
            </trkpt>
            <trkpt lon="100.834429" lat="13.875110">
                <ele>1.579346</ele>
                <time>2004-07-31T07:11:01Z</time>
            </trkpt>
            <trkpt lon="100.834408" lat="13.875861">
                <ele>2.540649</ele>
                <time>2004-07-31T07:11:22Z</time>
            </trkpt>
            <trkpt lon="100.834408" lat="13.876355">
                <ele>2.540649</ele>
                <time>2004-07-31T07:11:38Z</time>
            </trkpt>
            <trkpt lon="100.834386" lat="13.876784">
                <ele>2.540649</ele>
                <time>2004-07-31T07:11:51Z</time>
            </trkpt>
            <trkpt lon="100.834386" lat="13.877299">
                <ele>2.540649</ele>
                <time>2004-07-31T07:12:07Z</time>
            </trkpt>
            <trkpt lon="100.834386" lat="13.877385">
                <ele>2.540649</ele>
                <time>2004-07-31T07:12:19Z</time>
            </trkpt>
            <trkpt lon="100.834408" lat="13.877535">
                <ele>3.982666</ele>
                <time>2004-07-31T07:12:31Z</time>
            </trkpt>
            <trkpt lon="100.834451" lat="13.877578">
                <ele>4.463257</ele>
                <time>2004-07-31T07:12:46Z</time>
            </trkpt>
            <trkpt lon="100.834451" lat="13.877578">
                <ele>3.021240</ele>
                <time>2004-07-31T07:13:08Z</time>
            </trkpt>
            <trkpt lon="100.834451" lat="13.877578">
                <ele>2.060059</ele>
                <time>2004-07-31T07:13:37Z</time>
            </trkpt>
            <trkpt lon="100.834730" lat="13.877578">
                <ele>2.060059</ele>
                <time>2004-07-31T07:13:50Z</time>
            </trkpt>
            <trkpt lon="100.835202" lat="13.877556">
                <ele>3.982666</ele>
                <time>2004-07-31T07:14:07Z</time>
            </trkpt>
            <trkpt lon="100.835373" lat="13.877664">
                <ele>2.060059</ele>
                <time>2004-07-31T07:14:16Z</time>
            </trkpt>
            <trkpt lon="100.835631" lat="13.877642">
                <ele>1.579346</ele>
                <time>2004-07-31T07:14:30Z</time>
            </trkpt>
            <trkpt lon="100.835738" lat="13.877578">
                <ele>1.579346</ele>
                <time>2004-07-31T07:14:45Z</time>
            </trkpt>
            <trkpt lon="100.835803" lat="13.877599">
                <ele>1.098633</ele>
                <time>2004-07-31T07:14:59Z</time>
            </trkpt>
            <trkpt lon="100.835803" lat="13.877599">
                <ele>1.098633</ele>
                <time>2004-07-31T07:15:00Z</time>
            </trkpt>
            <trkpt lon="100.835803" lat="13.877664">
                <ele>1.098633</ele>
                <time>2004-07-31T07:15:04Z</time>
            </trkpt>
            <trkpt lon="100.835803" lat="13.878114">
                <ele>3.021240</ele>
                <time>2004-07-31T07:15:22Z</time>
            </trkpt>
            <trkpt lon="100.835803" lat="13.878758">
                <ele>4.943848</ele>
                <time>2004-07-31T07:15:43Z</time>
            </trkpt>
            <trkpt lon="100.835888" lat="13.879488">
                <ele>5.905273</ele>
                <time>2004-07-31T07:16:06Z</time>
            </trkpt>
            <trkpt lon="100.835974" lat="13.880088">
                <ele>5.905273</ele>
                <time>2004-07-31T07:16:25Z</time>
            </trkpt>
            <trkpt lon="100.836082" lat="13.881011">
                <ele>6.385864</ele>
                <time>2004-07-31T07:16:51Z</time>
            </trkpt>
            <trkpt lon="100.836189" lat="13.881848">
                <ele>3.501953</ele>
                <time>2004-07-31T07:17:15Z</time>
            </trkpt>
            <trkpt lon="100.836253" lat="13.882406">
                <ele>1.098633</ele>
                <time>2004-07-31T07:17:33Z</time>
            </trkpt>
            <trkpt lon="100.836275" lat="13.882427">
                <ele>0.618042</ele>
                <time>2004-07-31T07:17:44Z</time>
            </trkpt>
            <trkpt lon="100.836296" lat="13.882577">
                <ele>0.137451</ele>
                <time>2004-07-31T07:17:57Z</time>
            </trkpt>
            <trkpt lon="100.836318" lat="13.882620">
                <ele>3.501953</ele>
                <time>2004-07-31T07:18:10Z</time>
            </trkpt>
            <trkpt lon="100.836296" lat="13.882642">
                <ele>3.021240</ele>
                <time>2004-07-31T07:18:16Z</time>
            </trkpt>
            <trkpt lon="100.836275" lat="13.882663">
                <ele>3.021240</ele>
                <time>2004-07-31T07:18:19Z</time>
            </trkpt>
            <trkpt lon="100.836167" lat="13.882685">
                <ele>3.021240</ele>
                <time>2004-07-31T07:18:25Z</time>
            </trkpt>
            <trkpt lon="100.835545" lat="13.882878">
                <ele>2.540649</ele>
                <time>2004-07-31T07:18:46Z</time>
            </trkpt>
            <trkpt lon="100.835030" lat="13.883028">
                <ele>3.021240</ele>
                <time>2004-07-31T07:19:03Z</time>
            </trkpt>
            <trkpt lon="100.834944" lat="13.883049">
                <ele>3.021240</ele>
                <time>2004-07-31T07:19:14Z</time>
            </trkpt>
            <trkpt lon="100.834944" lat="13.883049">
                <ele>4.463257</ele>
                <time>2004-07-31T07:19:56Z</time>
            </trkpt>
            <trkpt lon="100.834901" lat="13.883071">
                <ele>5.424561</ele>
                <time>2004-07-31T07:20:10Z</time>
            </trkpt>
            <trkpt lon="100.834901" lat="13.883092">
                <ele>6.866455</ele>
                <time>2004-07-31T07:20:27Z</time>
            </trkpt>
            <trkpt lon="100.834923" lat="13.883092">
                <ele>5.905273</ele>
                <time>2004-07-31T07:21:12Z</time>
            </trkpt>
            <trkpt lon="100.834944" lat="13.883071">
                <ele>4.943848</ele>
                <time>2004-07-31T07:21:44Z</time>
            </trkpt>
            <trkpt lon="100.835266" lat="13.882964">
                <ele>5.424561</ele>
                <time>2004-07-31T07:21:59Z</time>
            </trkpt>
            <trkpt lon="100.835674" lat="13.882835">
                <ele>5.424561</ele>
                <time>2004-07-31T07:22:14Z</time>
            </trkpt>
            <trkpt lon="100.836146" lat="13.882685">
                <ele>5.905273</ele>
                <time>2004-07-31T07:22:33Z</time>
            </trkpt>
            <trkpt lon="100.836232" lat="13.882663">
                <ele>4.943848</ele>
                <time>2004-07-31T07:22:45Z</time>
            </trkpt>
            <trkpt lon="100.836275" lat="13.882663">
                <ele>2.540649</ele>
                <time>2004-07-31T07:23:03Z</time>
            </trkpt>
            <trkpt lon="100.836296" lat="13.882642">
                <ele>3.501953</ele>
                <time>2004-07-31T07:23:16Z</time>
            </trkpt>
            <trkpt lon="100.836382" lat="13.882642">
                <ele>3.982666</ele>
                <time>2004-07-31T07:23:33Z</time>
            </trkpt>
            <trkpt lon="100.836446" lat="13.882642">
                <ele>3.982666</ele>
                <time>2004-07-31T07:23:48Z</time>
            </trkpt>
            <trkpt lon="100.836725" lat="13.882599">
                <ele>4.943848</ele>
                <time>2004-07-31T07:24:11Z</time>
            </trkpt>
            <trkpt lon="100.836875" lat="13.882535">
                <ele>4.943848</ele>
                <time>2004-07-31T07:24:27Z</time>
            </trkpt>
            <trkpt lon="100.836897" lat="13.882513">
                <ele>5.905273</ele>
                <time>2004-07-31T07:24:32Z</time>
            </trkpt>
            <trkpt lon="100.837283" lat="13.882427">
                <ele>6.385864</ele>
                <time>2004-07-31T07:24:46Z</time>
            </trkpt>
            <trkpt lon="100.837927" lat="13.882277">
                <ele>5.424561</ele>
                <time>2004-07-31T07:25:04Z</time>
            </trkpt>
            <trkpt lon="100.838656" lat="13.882127">
                <ele>4.943848</ele>
                <time>2004-07-31T07:25:27Z</time>
            </trkpt>
            <trkpt lon="100.839300" lat="13.881977">
                <ele>4.943848</ele>
                <time>2004-07-31T07:25:48Z</time>
            </trkpt>
            <trkpt lon="100.839665" lat="13.881891">
                <ele>4.943848</ele>
                <time>2004-07-31T07:26:03Z</time>
            </trkpt>
            <trkpt lon="100.839751" lat="13.881891">
                <ele>4.943848</ele>
                <time>2004-07-31T07:26:06Z</time>
            </trkpt>
            <trkpt lon="100.839837" lat="13.882020">
                <ele>4.943848</ele>
                <time>2004-07-31T07:26:12Z</time>
            </trkpt>
            <trkpt lon="100.839944" lat="13.882599">
                <ele>3.501953</ele>
                <time>2004-07-31T07:26:26Z</time>
            </trkpt>
            <trkpt lon="100.840094" lat="13.883393">
                <ele>2.540649</ele>
                <time>2004-07-31T07:26:43Z</time>
            </trkpt>
            <trkpt lon="100.840158" lat="13.883801">
                <ele>2.540649</ele>
                <time>2004-07-31T07:26:52Z</time>
            </trkpt>
            <trkpt lon="100.840287" lat="13.884358">
                <ele>2.540649</ele>
                <time>2004-07-31T07:27:04Z</time>
            </trkpt>
            <trkpt lon="100.840352" lat="13.884594">
                <ele>3.021240</ele>
                <time>2004-07-31T07:27:09Z</time>
            </trkpt>
            <trkpt lon="100.840373" lat="13.884723">
                <ele>3.021240</ele>
                <time>2004-07-31T07:27:12Z</time>
            </trkpt>
            <trkpt lon="100.840609" lat="13.885603">
                <ele>2.540649</ele>
                <time>2004-07-31T07:27:32Z</time>
            </trkpt>
            <trkpt lon="100.840695" lat="13.885882">
                <ele>2.540649</ele>
                <time>2004-07-31T07:27:39Z</time>
            </trkpt>
            <trkpt lon="100.840802" lat="13.885968">
                <ele>2.540649</ele>
                <time>2004-07-31T07:27:43Z</time>
            </trkpt>
            <trkpt lon="100.840952" lat="13.886418">
                <ele>2.540649</ele>
                <time>2004-07-31T07:27:59Z</time>
            </trkpt>
            <trkpt lon="100.840952" lat="13.886483">
                <ele>2.540649</ele>
                <time>2004-07-31T07:28:05Z</time>
            </trkpt>
            <trkpt lon="100.840888" lat="13.886526">
                <ele>3.501953</ele>
                <time>2004-07-31T07:28:17Z</time>
            </trkpt>
            <trkpt lon="100.840845" lat="13.886547">
                <ele>2.540649</ele>
                <time>2004-07-31T07:28:30Z</time>
            </trkpt>
            <trkpt lon="100.840845" lat="13.886590">
                <ele>3.501953</ele>
                <time>2004-07-31T07:28:45Z</time>
            </trkpt>
            <trkpt lon="100.840888" lat="13.886633">
                <ele>4.943848</ele>
                <time>2004-07-31T07:28:54Z</time>
            </trkpt>
            <trkpt lon="100.840931" lat="13.886719">
                <ele>5.424561</ele>
                <time>2004-07-31T07:29:02Z</time>
            </trkpt>
            <trkpt lon="100.840909" lat="13.886740">
                <ele>5.424561</ele>
                <time>2004-07-31T07:29:05Z</time>
            </trkpt>
            <trkpt lon="100.840652" lat="13.886912">
                <ele>4.943848</ele>
                <time>2004-07-31T07:29:21Z</time>
            </trkpt>
            <trkpt lon="100.840523" lat="13.886933">
                <ele>4.463257</ele>
                <time>2004-07-31T07:29:23Z</time>
            </trkpt>
            <trkpt lon="100.840416" lat="13.886976">
                <ele>4.943848</ele>
                <time>2004-07-31T07:29:25Z</time>
            </trkpt>
            <trkpt lon="100.839901" lat="13.887234">
                <ele>2.540649</ele>
                <time>2004-07-31T07:29:35Z</time>
            </trkpt>
            <trkpt lon="100.839322" lat="13.887577">
                <ele>2.540649</ele>
                <time>2004-07-31T07:29:48Z</time>
            </trkpt>
            <trkpt lon="100.838764" lat="13.887641">
                <ele>2.060059</ele>
                <time>2004-07-31T07:29:58Z</time>
            </trkpt>
            <trkpt lon="100.838099" lat="13.887641">
                <ele>2.540649</ele>
                <time>2004-07-31T07:30:11Z</time>
            </trkpt>
            <trkpt lon="100.837948" lat="13.887663">
                <ele>2.540649</ele>
                <time>2004-07-31T07:30:14Z</time>
            </trkpt>
            <trkpt lon="100.837798" lat="13.887727">
                <ele>2.540649</ele>
                <time>2004-07-31T07:30:17Z</time>
            </trkpt>
            <trkpt lon="100.836983" lat="13.888221">
                <ele>-0.824097</ele>
                <time>2004-07-31T07:30:35Z</time>
            </trkpt>
            <trkpt lon="100.836575" lat="13.888478">
                <ele>0.137451</ele>
                <time>2004-07-31T07:30:44Z</time>
            </trkpt>
            <trkpt lon="100.836232" lat="13.888607">
                <ele>0.137451</ele>
                <time>2004-07-31T07:30:51Z</time>
            </trkpt>
            <trkpt lon="100.835395" lat="13.888822">
                <ele>2.540649</ele>
                <time>2004-07-31T07:31:08Z</time>
            </trkpt>
            <trkpt lon="100.834966" lat="13.888907">
                <ele>3.982666</ele>
                <time>2004-07-31T07:31:18Z</time>
            </trkpt>
            <trkpt lon="100.834365" lat="13.889015">
                <ele>3.501953</ele>
                <time>2004-07-31T07:31:30Z</time>
            </trkpt>
            <trkpt lon="100.833721" lat="13.888972">
                <ele>3.021240</ele>
                <time>2004-07-31T07:31:43Z</time>
            </trkpt>
            <trkpt lon="100.833142" lat="13.888972">
                <ele>3.982666</ele>
                <time>2004-07-31T07:31:55Z</time>
            </trkpt>
            <trkpt lon="100.833035" lat="13.889079">
                <ele>3.982666</ele>
                <time>2004-07-31T07:32:00Z</time>
            </trkpt>
            <trkpt lon="100.833249" lat="13.889980">
                <ele>-1.304688</ele>
                <time>2004-07-31T07:32:20Z</time>
            </trkpt>
            <trkpt lon="100.833399" lat="13.890839">
                <ele>-0.343384</ele>
                <time>2004-07-31T07:32:37Z</time>
            </trkpt>
            <trkpt lon="100.833550" lat="13.891761">
                <ele>-0.824097</ele>
                <time>2004-07-31T07:32:55Z</time>
            </trkpt>
            <trkpt lon="100.833764" lat="13.892770">
                <ele>-0.824097</ele>
                <time>2004-07-31T07:33:14Z</time>
            </trkpt>
            <trkpt lon="100.834022" lat="13.893864">
                <ele>1.098633</ele>
                <time>2004-07-31T07:33:34Z</time>
            </trkpt>
            <trkpt lon="100.834193" lat="13.894873">
                <ele>1.098633</ele>
                <time>2004-07-31T07:33:53Z</time>
            </trkpt>
            <trkpt lon="100.834386" lat="13.895731">
                <ele>2.060059</ele>
                <time>2004-07-31T07:34:11Z</time>
            </trkpt>
            <trkpt lon="100.834386" lat="13.895795">
                <ele>1.579346</ele>
                <time>2004-07-31T07:34:13Z</time>
            </trkpt>
            <trkpt lon="100.834258" lat="13.895860">
                <ele>0.137451</ele>
                <time>2004-07-31T07:34:17Z</time>
            </trkpt>
            <trkpt lon="100.833464" lat="13.895946">
                <ele>0.618042</ele>
                <time>2004-07-31T07:34:34Z</time>
            </trkpt>
            <trkpt lon="100.832584" lat="13.896074">
                <ele>0.618042</ele>
                <time>2004-07-31T07:34:52Z</time>
            </trkpt>
            <trkpt lon="100.832455" lat="13.895924">
                <ele>1.098633</ele>
                <time>2004-07-31T07:34:58Z</time>
            </trkpt>
            <trkpt lon="100.832412" lat="13.895602">
                <ele>1.579346</ele>
                <time>2004-07-31T07:35:06Z</time>
            </trkpt>
            <trkpt lon="100.832262" lat="13.895538">
                <ele>1.579346</ele>
                <time>2004-07-31T07:35:11Z</time>
            </trkpt>
            <trkpt lon="100.831511" lat="13.895581">
                <ele>3.501953</ele>
                <time>2004-07-31T07:35:27Z</time>
            </trkpt>
            <trkpt lon="100.831468" lat="13.895581">
                <ele>3.501953</ele>
                <time>2004-07-31T07:35:28Z</time>
            </trkpt>
            <trkpt lon="100.830331" lat="13.895710">
                <ele>5.905273</ele>
                <time>2004-07-31T07:35:47Z</time>
            </trkpt>
            <trkpt lon="100.829816" lat="13.895924">
                <ele>7.347168</ele>
                <time>2004-07-31T07:35:59Z</time>
            </trkpt>
            <trkpt lon="100.829666" lat="13.895903">
                <ele>6.866455</ele>
                <time>2004-07-31T07:36:04Z</time>
            </trkpt>
            <trkpt lon="100.829473" lat="13.895817">
                <ele>5.905273</ele>
                <time>2004-07-31T07:36:09Z</time>
            </trkpt>
            <trkpt lon="100.828786" lat="13.895538">
                <ele>3.982666</ele>
                <time>2004-07-31T07:36:27Z</time>
            </trkpt>
            <trkpt lon="100.828207" lat="13.895409">
                <ele>3.501953</ele>
                <time>2004-07-31T07:36:45Z</time>
            </trkpt>
            <trkpt lon="100.827391" lat="13.895516">
                <ele>3.501953</ele>
                <time>2004-07-31T07:37:03Z</time>
            </trkpt>
            <trkpt lon="100.826297" lat="13.895559">
                <ele>2.060059</ele>
                <time>2004-07-31T07:37:22Z</time>
            </trkpt>
            <trkpt lon="100.825245" lat="13.895581">
                <ele>5.424561</ele>
                <time>2004-07-31T07:37:41Z</time>
            </trkpt>
            <trkpt lon="100.824838" lat="13.895645">
                <ele>6.385864</ele>
                <time>2004-07-31T07:37:48Z</time>
            </trkpt>
            <trkpt lon="100.824559" lat="13.895602">
                <ele>5.424561</ele>
                <time>2004-07-31T07:37:53Z</time>
            </trkpt>
            <trkpt lon="100.824366" lat="13.895538">
                <ele>5.424561</ele>
                <time>2004-07-31T07:38:02Z</time>
            </trkpt>
            <trkpt lon="100.824387" lat="13.895538">
                <ele>4.943848</ele>
                <time>2004-07-31T07:38:19Z</time>
            </trkpt>
            <trkpt lon="100.824344" lat="13.895495">
                <ele>5.424561</ele>
                <time>2004-07-31T07:38:24Z</time>
            </trkpt>
            <trkpt lon="100.824065" lat="13.895366">
                <ele>5.424561</ele>
                <time>2004-07-31T07:38:37Z</time>
            </trkpt>
            <trkpt lon="100.823679" lat="13.895280">
                <ele>5.424561</ele>
                <time>2004-07-31T07:38:50Z</time>
            </trkpt>
            <trkpt lon="100.822864" lat="13.895109">
                <ele>3.501953</ele>
                <time>2004-07-31T07:39:07Z</time>
            </trkpt>
            <trkpt lon="100.821898" lat="13.894787">
                <ele>1.579346</ele>
                <time>2004-07-31T07:39:25Z</time>
            </trkpt>
            <trkpt lon="100.820611" lat="13.894422">
                <ele>3.021240</ele>
                <time>2004-07-31T07:39:48Z</time>
            </trkpt>
            <trkpt lon="100.819130" lat="13.894079">
                <ele>3.021240</ele>
                <time>2004-07-31T07:40:14Z</time>
            </trkpt>
            <trkpt lon="100.818229" lat="13.893714">
                <ele>3.501953</ele>
                <time>2004-07-31T07:40:31Z</time>
            </trkpt>
            <trkpt lon="100.817842" lat="13.893478">
                <ele>3.982666</ele>
                <time>2004-07-31T07:40:39Z</time>
            </trkpt>
            <trkpt lon="100.816748" lat="13.893135">
                <ele>3.982666</ele>
                <time>2004-07-31T07:41:00Z</time>
            </trkpt>
            <trkpt lon="100.815804" lat="13.892813">
                <ele>3.982666</ele>
                <time>2004-07-31T07:41:20Z</time>
            </trkpt>
            <trkpt lon="100.815074" lat="13.892384">
                <ele>3.982666</ele>
                <time>2004-07-31T07:41:38Z</time>
            </trkpt>
            <trkpt lon="100.814967" lat="13.892319">
                <ele>3.501953</ele>
                <time>2004-07-31T07:41:41Z</time>
            </trkpt>
            <trkpt lon="100.814323" lat="13.891718">
                <ele>5.424561</ele>
                <time>2004-07-31T07:41:57Z</time>
            </trkpt>
            <trkpt lon="100.813529" lat="13.890967">
                <ele>3.501953</ele>
                <time>2004-07-31T07:42:16Z</time>
            </trkpt>
            <trkpt lon="100.813251" lat="13.890774">
                <ele>3.501953</ele>
                <time>2004-07-31T07:42:22Z</time>
            </trkpt>
            <trkpt lon="100.812585" lat="13.890517">
                <ele>3.982666</ele>
                <time>2004-07-31T07:42:34Z</time>
            </trkpt>
            <trkpt lon="100.812371" lat="13.890538">
                <ele>3.982666</ele>
                <time>2004-07-31T07:42:38Z</time>
            </trkpt>
            <trkpt lon="100.812006" lat="13.890517">
                <ele>3.501953</ele>
                <time>2004-07-31T07:42:45Z</time>
            </trkpt>
            <trkpt lon="100.811598" lat="13.890581">
                <ele>3.021240</ele>
                <time>2004-07-31T07:42:52Z</time>
            </trkpt>
            <trkpt lon="100.810847" lat="13.890924">
                <ele>3.501953</ele>
                <time>2004-07-31T07:43:07Z</time>
            </trkpt>
            <trkpt lon="100.810654" lat="13.890924">
                <ele>3.501953</ele>
                <time>2004-07-31T07:43:11Z</time>
            </trkpt>
            <trkpt lon="100.810547" lat="13.890924">
                <ele>3.501953</ele>
                <time>2004-07-31T07:43:13Z</time>
            </trkpt>
            <trkpt lon="100.810354" lat="13.890839">
                <ele>4.463257</ele>
                <time>2004-07-31T07:43:23Z</time>
            </trkpt>
            <trkpt lon="100.810332" lat="13.890817">
                <ele>3.982666</ele>
                <time>2004-07-31T07:43:45Z</time>
            </trkpt>
            <trkpt lon="100.810332" lat="13.890731">
                <ele>3.982666</ele>
                <time>2004-07-31T07:43:49Z</time>
            </trkpt>
            <trkpt lon="100.810289" lat="13.890345">
                <ele>3.982666</ele>
                <time>2004-07-31T07:43:58Z</time>
            </trkpt>
            <trkpt lon="100.810225" lat="13.889594">
                <ele>3.982666</ele>
                <time>2004-07-31T07:44:17Z</time>
            </trkpt>
            <trkpt lon="100.810118" lat="13.888972">
                <ele>4.943848</ele>
                <time>2004-07-31T07:44:30Z</time>
            </trkpt>
            <trkpt lon="100.810032" lat="13.888586">
                <ele>5.424561</ele>
                <time>2004-07-31T07:44:41Z</time>
            </trkpt>
            <trkpt lon="100.810010" lat="13.888543">
                <ele>4.943848</ele>
                <time>2004-07-31T07:44:44Z</time>
            </trkpt>
            <trkpt lon="100.809903" lat="13.888500">
                <ele>3.501953</ele>
                <time>2004-07-31T07:44:59Z</time>
            </trkpt>
            <trkpt lon="100.809968" lat="13.888521">
                <ele>6.385864</ele>
                <time>2004-07-31T07:48:03Z</time>
            </trkpt>
            <trkpt lon="100.809968" lat="13.888521">
                <ele>9.269897</ele>
                <time>2004-07-31T07:50:58Z</time>
            </trkpt>
            <trkpt lon="100.809968" lat="13.888521">
                <ele>4.463257</ele>
                <time>2004-07-31T08:05:14Z</time>
            </trkpt>
            <trkpt lon="100.810010" lat="13.888650">
                <ele>4.943848</ele>
                <time>2004-07-31T08:05:22Z</time>
            </trkpt>
            <trkpt lon="100.809946" lat="13.888671">
                <ele>4.943848</ele>
                <time>2004-07-31T08:05:25Z</time>
            </trkpt>
            <trkpt lon="100.809624" lat="13.888650">
                <ele>3.982666</ele>
                <time>2004-07-31T08:05:38Z</time>
            </trkpt>
            <trkpt lon="100.809624" lat="13.888650">
                <ele>3.982666</ele>
                <time>2004-07-31T08:05:39Z</time>
            </trkpt>
            <trkpt lon="100.809624" lat="13.888650">
                <ele>10.231201</ele>
                <time>2004-07-31T08:06:02Z</time>
            </trkpt>
            <trkpt lon="100.809646" lat="13.888671">
                <ele>3.982666</ele>
                <time>2004-07-31T08:06:42Z</time>
            </trkpt>
            <trkpt lon="100.809646" lat="13.888628">
                <ele>5.424561</ele>
                <time>2004-07-31T08:07:25Z</time>
            </trkpt>
            <trkpt lon="100.809281" lat="13.888607">
                <ele>4.943848</ele>
                <time>2004-07-31T08:07:35Z</time>
            </trkpt>
            <trkpt lon="100.808787" lat="13.888671">
                <ele>3.021240</ele>
                <time>2004-07-31T08:07:49Z</time>
            </trkpt>
            <trkpt lon="100.808659" lat="13.888714">
                <ele>2.540649</ele>
                <time>2004-07-31T08:07:52Z</time>
            </trkpt>
            <trkpt lon="100.808551" lat="13.888714">
                <ele>2.540649</ele>
                <time>2004-07-31T08:07:54Z</time>
            </trkpt>
            <trkpt lon="100.808380" lat="13.888714">
                <ele>2.060059</ele>
                <time>2004-07-31T08:07:57Z</time>
            </trkpt>
            <trkpt lon="100.808144" lat="13.888650">
                <ele>3.021240</ele>
                <time>2004-07-31T08:08:02Z</time>
            </trkpt>
            <trkpt lon="100.808036" lat="13.888586">
                <ele>3.021240</ele>
                <time>2004-07-31T08:08:04Z</time>
            </trkpt>
            <trkpt lon="100.807521" lat="13.888178">
                <ele>2.540649</ele>
                <time>2004-07-31T08:08:17Z</time>
            </trkpt>
            <trkpt lon="100.807350" lat="13.888135">
                <ele>2.540649</ele>
                <time>2004-07-31T08:08:21Z</time>
            </trkpt>
            <trkpt lon="100.807221" lat="13.888156">
                <ele>3.021240</ele>
                <time>2004-07-31T08:08:24Z</time>
            </trkpt>
            <trkpt lon="100.806942" lat="13.888264">
                <ele>3.982666</ele>
                <time>2004-07-31T08:08:31Z</time>
            </trkpt>
            <trkpt lon="100.806856" lat="13.888285">
                <ele>3.982666</ele>
                <time>2004-07-31T08:08:34Z</time>
            </trkpt>
            <trkpt lon="100.806813" lat="13.888242">
                <ele>4.463257</ele>
                <time>2004-07-31T08:08:38Z</time>
            </trkpt>
            <trkpt lon="100.806770" lat="13.888242">
                <ele>4.463257</ele>
                <time>2004-07-31T08:08:40Z</time>
            </trkpt>
            <trkpt lon="100.806470" lat="13.888371">
                <ele>3.982666</ele>
                <time>2004-07-31T08:08:54Z</time>
            </trkpt>
            <trkpt lon="100.805848" lat="13.888586">
                <ele>3.982666</ele>
                <time>2004-07-31T08:09:16Z</time>
            </trkpt>
            <trkpt lon="100.805569" lat="13.888714">
                <ele>5.424561</ele>
                <time>2004-07-31T08:09:32Z</time>
            </trkpt>
            <trkpt lon="100.805547" lat="13.888714">
                <ele>5.424561</ele>
                <time>2004-07-31T08:09:39Z</time>
            </trkpt>
            <trkpt lon="100.805655" lat="13.888693">
                <ele>4.943848</ele>
                <time>2004-07-31T08:09:44Z</time>
            </trkpt>
            <trkpt lon="100.805762" lat="13.888671">
                <ele>4.943848</ele>
                <time>2004-07-31T08:09:48Z</time>
            </trkpt>
            <trkpt lon="100.806642" lat="13.888392">
                <ele>4.943848</ele>
                <time>2004-07-31T08:10:12Z</time>
            </trkpt>
            <trkpt lon="100.806899" lat="13.888221">
                <ele>6.385864</ele>
                <time>2004-07-31T08:10:22Z</time>
            </trkpt>
            <trkpt lon="100.806684" lat="13.887534">
                <ele>5.424561</ele>
                <time>2004-07-31T08:10:38Z</time>
            </trkpt>
            <trkpt lon="100.806513" lat="13.886633">
                <ele>3.982666</ele>
                <time>2004-07-31T08:10:56Z</time>
            </trkpt>
            <trkpt lon="100.806298" lat="13.885496">
                <ele>3.982666</ele>
                <time>2004-07-31T08:11:17Z</time>
            </trkpt>
            <trkpt lon="100.806255" lat="13.885281">
                <ele>3.982666</ele>
                <time>2004-07-31T08:11:21Z</time>
            </trkpt>
            <trkpt lon="100.806062" lat="13.884165">
                <ele>3.982666</ele>
                <time>2004-07-31T08:11:39Z</time>
            </trkpt>
            <trkpt lon="100.805912" lat="13.882921">
                <ele>4.463257</ele>
                <time>2004-07-31T08:11:59Z</time>
            </trkpt>
            <trkpt lon="100.805676" lat="13.881505">
                <ele>4.463257</ele>
                <time>2004-07-31T08:12:22Z</time>
            </trkpt>
            <trkpt lon="100.805719" lat="13.880303">
                <ele>4.943848</ele>
                <time>2004-07-31T08:12:41Z</time>
            </trkpt>
            <trkpt lon="100.805762" lat="13.878908">
                <ele>4.943848</ele>
                <time>2004-07-31T08:13:04Z</time>
            </trkpt>
            <trkpt lon="100.805655" lat="13.877728">
                <ele>4.463257</ele>
                <time>2004-07-31T08:13:24Z</time>
            </trkpt>
            <trkpt lon="100.805526" lat="13.876612">
                <ele>3.982666</ele>
                <time>2004-07-31T08:13:43Z</time>
            </trkpt>
            <trkpt lon="100.805418" lat="13.875582">
                <ele>3.982666</ele>
                <time>2004-07-31T08:14:01Z</time>
            </trkpt>
            <trkpt lon="100.805268" lat="13.874123">
                <ele>4.463257</ele>
                <time>2004-07-31T08:14:26Z</time>
            </trkpt>
            <trkpt lon="100.805118" lat="13.872921">
                <ele>4.463257</ele>
                <time>2004-07-31T08:14:48Z</time>
            </trkpt>
            <trkpt lon="100.805011" lat="13.871613">
                <ele>3.982666</ele>
                <time>2004-07-31T08:15:12Z</time>
            </trkpt>
            <trkpt lon="100.804989" lat="13.870904">
                <ele>3.501953</ele>
                <time>2004-07-31T08:15:27Z</time>
            </trkpt>
            <trkpt lon="100.804904" lat="13.870840">
                <ele>3.982666</ele>
                <time>2004-07-31T08:15:32Z</time>
            </trkpt>
            <trkpt lon="100.804796" lat="13.870819">
                <ele>4.463257</ele>
                <time>2004-07-31T08:15:43Z</time>
            </trkpt>
            <trkpt lon="100.804796" lat="13.870819">
                <ele>4.463257</ele>
                <time>2004-07-31T08:16:00Z</time>
            </trkpt>
            <trkpt lon="100.804796" lat="13.870819">
                <ele>4.463257</ele>
                <time>2004-07-31T08:16:07Z</time>
            </trkpt>
            <trkpt lon="100.804796" lat="13.870797">
                <ele>4.943848</ele>
                <time>2004-07-31T08:16:31Z</time>
            </trkpt>
            <trkpt lon="100.804775" lat="13.870797">
                <ele>6.385864</ele>
                <time>2004-07-31T08:17:04Z</time>
            </trkpt>
            <trkpt lon="100.804346" lat="13.870754">
                <ele>5.905273</ele>
                <time>2004-07-31T08:17:17Z</time>
            </trkpt>
            <trkpt lon="100.803595" lat="13.870647">
                <ele>4.943848</ele>
                <time>2004-07-31T08:17:36Z</time>
            </trkpt>
            <trkpt lon="100.803487" lat="13.870604">
                <ele>4.943848</ele>
                <time>2004-07-31T08:17:39Z</time>
            </trkpt>
            <trkpt lon="100.803530" lat="13.870239">
                <ele>4.463257</ele>
                <time>2004-07-31T08:17:49Z</time>
            </trkpt>
            <trkpt lon="100.803702" lat="13.869231">
                <ele>3.982666</ele>
                <time>2004-07-31T08:18:10Z</time>
            </trkpt>
            <trkpt lon="100.803916" lat="13.868093">
                <ele>3.982666</ele>
                <time>2004-07-31T08:18:34Z</time>
            </trkpt>
            <trkpt lon="100.804152" lat="13.867149">
                <ele>2.060059</ele>
                <time>2004-07-31T08:18:54Z</time>
            </trkpt>
            <trkpt lon="100.804453" lat="13.866076">
                <ele>2.060059</ele>
                <time>2004-07-31T08:19:17Z</time>
            </trkpt>
            <trkpt lon="100.804689" lat="13.865283">
                <ele>2.540649</ele>
                <time>2004-07-31T08:19:35Z</time>
            </trkpt>
            <trkpt lon="100.804839" lat="13.864768">
                <ele>3.501953</ele>
                <time>2004-07-31T08:19:53Z</time>
            </trkpt>
            <trkpt lon="100.804882" lat="13.864682">
                <ele>3.501953</ele>
                <time>2004-07-31T08:19:56Z</time>
            </trkpt>
            <trkpt lon="100.805011" lat="13.864639">
                <ele>3.501953</ele>
                <time>2004-07-31T08:20:01Z</time>
            </trkpt>
            <trkpt lon="100.805054" lat="13.864639">
                <ele>3.501953</ele>
                <time>2004-07-31T08:20:03Z</time>
            </trkpt>
            <trkpt lon="100.805204" lat="13.864682">
                <ele>3.501953</ele>
                <time>2004-07-31T08:20:07Z</time>
            </trkpt>
            <trkpt lon="100.805290" lat="13.864703">
                <ele>3.501953</ele>
                <time>2004-07-31T08:20:12Z</time>
            </trkpt>
            <trkpt lon="100.805418" lat="13.864317">
                <ele>3.501953</ele>
                <time>2004-07-31T08:20:32Z</time>
            </trkpt>
            <trkpt lon="100.805504" lat="13.863995">
                <ele>4.943848</ele>
                <time>2004-07-31T08:20:44Z</time>
            </trkpt>
            <trkpt lon="100.805161" lat="13.863630">
                <ele>3.982666</ele>
                <time>2004-07-31T08:20:58Z</time>
            </trkpt>
            <trkpt lon="100.804839" lat="13.863330">
                <ele>1.098633</ele>
                <time>2004-07-31T08:21:10Z</time>
            </trkpt>
            <trkpt lon="100.804238" lat="13.862879">
                <ele>2.060059</ele>
                <time>2004-07-31T08:21:27Z</time>
            </trkpt>
            <trkpt lon="100.803680" lat="13.862429">
                <ele>3.021240</ele>
                <time>2004-07-31T08:21:44Z</time>
            </trkpt>
            <trkpt lon="100.803165" lat="13.861849">
                <ele>2.540649</ele>
                <time>2004-07-31T08:22:01Z</time>
            </trkpt>
            <trkpt lon="100.802844" lat="13.861270">
                <ele>3.982666</ele>
                <time>2004-07-31T08:22:17Z</time>
            </trkpt>
            <trkpt lon="100.802758" lat="13.861055">
                <ele>3.982666</ele>
                <time>2004-07-31T08:22:30Z</time>
            </trkpt>
            <trkpt lon="100.802436" lat="13.860798">
                <ele>3.982666</ele>
                <time>2004-07-31T08:22:43Z</time>
            </trkpt>
            <trkpt lon="100.802178" lat="13.860412">
                <ele>3.501953</ele>
                <time>2004-07-31T08:22:57Z</time>
            </trkpt>
            <trkpt lon="100.801835" lat="13.859918">
                <ele>2.540649</ele>
                <time>2004-07-31T08:23:13Z</time>
            </trkpt>
            <trkpt lon="100.801599" lat="13.859339">
                <ele>1.579346</ele>
                <time>2004-07-31T08:23:30Z</time>
            </trkpt>
            <trkpt lon="100.801620" lat="13.859103">
                <ele>2.540649</ele>
                <time>2004-07-31T08:23:41Z</time>
            </trkpt>
            <trkpt lon="100.801620" lat="13.859103">
                <ele>3.501953</ele>
                <time>2004-07-31T08:23:46Z</time>
            </trkpt>
            <trkpt lon="100.801513" lat="13.858953">
                <ele>3.501953</ele>
                <time>2004-07-31T08:23:58Z</time>
            </trkpt>
            <trkpt lon="100.801492" lat="13.858953">
                <ele>3.501953</ele>
                <time>2004-07-31T08:24:00Z</time>
            </trkpt>
            <trkpt lon="100.801384" lat="13.859167">
                <ele>0.618042</ele>
                <time>2004-07-31T08:24:10Z</time>
            </trkpt>
            <trkpt lon="100.801213" lat="13.859854">
                <ele>2.540649</ele>
                <time>2004-07-31T08:24:33Z</time>
            </trkpt>
            <trkpt lon="100.800934" lat="13.860798">
                <ele>3.501953</ele>
                <time>2004-07-31T08:24:58Z</time>
            </trkpt>
            <trkpt lon="100.800612" lat="13.861935">
                <ele>3.501953</ele>
                <time>2004-07-31T08:25:31Z</time>
            </trkpt>
            <trkpt lon="100.800591" lat="13.862042">
                <ele>2.540649</ele>
                <time>2004-07-31T08:25:42Z</time>
            </trkpt>
            <trkpt lon="100.800655" lat="13.862042">
                <ele>2.060059</ele>
                <time>2004-07-31T08:25:46Z</time>
            </trkpt>
            <trkpt lon="100.800698" lat="13.862064">
                <ele>2.540649</ele>
                <time>2004-07-31T08:25:48Z</time>
            </trkpt>
            <trkpt lon="100.800591" lat="13.862450">
                <ele>3.021240</ele>
                <time>2004-07-31T08:26:02Z</time>
            </trkpt>
            <trkpt lon="100.800397" lat="13.863094">
                <ele>3.982666</ele>
                <time>2004-07-31T08:26:20Z</time>
            </trkpt>
            <trkpt lon="100.800269" lat="13.863673">
                <ele>3.501953</ele>
                <time>2004-07-31T08:26:35Z</time>
            </trkpt>
            <trkpt lon="100.800140" lat="13.864317">
                <ele>3.982666</ele>
                <time>2004-07-31T08:26:52Z</time>
            </trkpt>
            <trkpt lon="100.800011" lat="13.864875">
                <ele>2.540649</ele>
                <time>2004-07-31T08:27:09Z</time>
            </trkpt>
            <trkpt lon="100.799904" lat="13.865261">
                <ele>2.540649</ele>
                <time>2004-07-31T08:27:24Z</time>
            </trkpt>
            <trkpt lon="100.799797" lat="13.865454">
                <ele>2.060059</ele>
                <time>2004-07-31T08:27:36Z</time>
            </trkpt>
            <trkpt lon="100.799775" lat="13.865476">
                <ele>1.098633</ele>
                <time>2004-07-31T08:27:58Z</time>
            </trkpt>
            <trkpt lon="100.799775" lat="13.865476">
                <ele>0.618042</ele>
                <time>2004-07-31T08:27:59Z</time>
            </trkpt>
            <trkpt lon="100.799775" lat="13.865583">
                <ele>-0.343384</ele>
                <time>2004-07-31T08:28:14Z</time>
            </trkpt>
            <trkpt lon="100.799797" lat="13.865583">
                <ele>2.060059</ele>
                <time>2004-07-31T08:29:05Z</time>
            </trkpt>
            <trkpt lon="100.799775" lat="13.865583">
                <ele>2.540649</ele>
                <time>2004-07-31T08:29:48Z</time>
            </trkpt>
            <trkpt lon="100.799775" lat="13.865583">
                <ele>2.540649</ele>
                <time>2004-07-31T08:30:32Z</time>
            </trkpt>
            <trkpt lon="100.799732" lat="13.865755">
                <ele>1.579346</ele>
                <time>2004-07-31T08:30:45Z</time>
            </trkpt>
            <trkpt lon="100.799689" lat="13.866055">
                <ele>1.579346</ele>
                <time>2004-07-31T08:30:59Z</time>
            </trkpt>
            <trkpt lon="100.799539" lat="13.866699">
                <ele>1.579346</ele>
                <time>2004-07-31T08:31:18Z</time>
            </trkpt>
            <trkpt lon="100.799346" lat="13.867428">
                <ele>1.579346</ele>
                <time>2004-07-31T08:31:38Z</time>
            </trkpt>
            <trkpt lon="100.799239" lat="13.867686">
                <ele>1.098633</ele>
                <time>2004-07-31T08:31:45Z</time>
            </trkpt>
            <trkpt lon="100.799153" lat="13.868179">
                <ele>0.618042</ele>
                <time>2004-07-31T08:32:01Z</time>
            </trkpt>
            <trkpt lon="100.799024" lat="13.868566">
                <ele>1.098633</ele>
                <time>2004-07-31T08:32:15Z</time>
            </trkpt>
            <trkpt lon="100.799024" lat="13.868630">
                <ele>1.098633</ele>
                <time>2004-07-31T08:32:25Z</time>
            </trkpt>
            <trkpt lon="100.799046" lat="13.868608">
                <ele>1.579346</ele>
                <time>2004-07-31T08:32:28Z</time>
            </trkpt>
            <trkpt lon="100.799131" lat="13.868330">
                <ele>1.579346</ele>
                <time>2004-07-31T08:32:42Z</time>
            </trkpt>
            <trkpt lon="100.799131" lat="13.868308">
                <ele>1.579346</ele>
                <time>2004-07-31T08:32:43Z</time>
            </trkpt>
            <trkpt lon="100.799196" lat="13.868265">
                <ele>1.579346</ele>
                <time>2004-07-31T08:32:46Z</time>
            </trkpt>
            <trkpt lon="100.799346" lat="13.868265">
                <ele>2.060059</ele>
                <time>2004-07-31T08:32:55Z</time>
            </trkpt>
            <trkpt lon="100.799818" lat="13.868480">
                <ele>2.060059</ele>
                <time>2004-07-31T08:33:12Z</time>
            </trkpt>
            <trkpt lon="100.799925" lat="13.868544">
                <ele>2.060059</ele>
                <time>2004-07-31T08:33:19Z</time>
            </trkpt>
            <trkpt lon="100.800226" lat="13.868651">
                <ele>1.579346</ele>
                <time>2004-07-31T08:33:33Z</time>
            </trkpt>
            <trkpt lon="100.800612" lat="13.868823">
                <ele>3.021240</ele>
                <time>2004-07-31T08:33:49Z</time>
            </trkpt>
            <trkpt lon="100.800633" lat="13.868823">
                <ele>3.021240</ele>
                <time>2004-07-31T08:33:51Z</time>
            </trkpt>
            <trkpt lon="100.800676" lat="13.868866">
                <ele>2.540649</ele>
                <time>2004-07-31T08:34:07Z</time>
            </trkpt>
            <trkpt lon="100.800676" lat="13.868845">
                <ele>1.098633</ele>
                <time>2004-07-31T08:34:28Z</time>
            </trkpt>
            <trkpt lon="100.800376" lat="13.868737">
                <ele>-0.824097</ele>
                <time>2004-07-31T08:34:39Z</time>
            </trkpt>
            <trkpt lon="100.800183" lat="13.868587">
                <ele>0.137451</ele>
                <time>2004-07-31T08:34:51Z</time>
            </trkpt>
            <trkpt lon="100.800140" lat="13.868630">
                <ele>-0.343384</ele>
                <time>2004-07-31T08:34:56Z</time>
            </trkpt>
            <trkpt lon="100.800140" lat="13.868694">
                <ele>-0.824097</ele>
                <time>2004-07-31T08:34:59Z</time>
            </trkpt>
            <trkpt lon="100.800290" lat="13.869102">
                <ele>-2.265991</ele>
                <time>2004-07-31T08:35:12Z</time>
            </trkpt>
            <trkpt lon="100.800226" lat="13.869467">
                <ele>-3.707886</ele>
                <time>2004-07-31T08:35:25Z</time>
            </trkpt>
            <trkpt lon="100.800161" lat="13.869638">
                <ele>-5.149902</ele>
                <time>2004-07-31T08:35:37Z</time>
            </trkpt>
            <trkpt lon="100.800183" lat="13.869638">
                <ele>-3.707886</ele>
                <time>2004-07-31T08:36:00Z</time>
            </trkpt>
            <trkpt lon="100.800204" lat="13.869553">
                <ele>-4.188599</ele>
                <time>2004-07-31T08:36:05Z</time>
            </trkpt>
            <trkpt lon="100.800290" lat="13.869102">
                <ele>-3.227295</ele>
                <time>2004-07-31T08:36:20Z</time>
            </trkpt>
            <trkpt lon="100.800183" lat="13.868823">
                <ele>-1.304688</ele>
                <time>2004-07-31T08:36:31Z</time>
            </trkpt>
            <trkpt lon="100.799861" lat="13.868480">
                <ele>1.098633</ele>
                <time>2004-07-31T08:36:48Z</time>
            </trkpt>
            <trkpt lon="100.799475" lat="13.868287">
                <ele>1.579346</ele>
                <time>2004-07-31T08:36:59Z</time>
            </trkpt>
            <trkpt lon="100.799367" lat="13.868244">
                <ele>1.579346</ele>
                <time>2004-07-31T08:37:02Z</time>
            </trkpt>
            <trkpt lon="100.799260" lat="13.868136">
                <ele>1.579346</ele>
                <time>2004-07-31T08:37:05Z</time>
            </trkpt>
            <trkpt lon="100.799217" lat="13.867943">
                <ele>1.098633</ele>
                <time>2004-07-31T08:37:10Z</time>
            </trkpt>
            <trkpt lon="100.799432" lat="13.867064">
                <ele>-0.824097</ele>
                <time>2004-07-31T08:37:29Z</time>
            </trkpt>
            <trkpt lon="100.799689" lat="13.866012">
                <ele>-1.785278</ele>
                <time>2004-07-31T08:37:50Z</time>
            </trkpt>
            <trkpt lon="100.799668" lat="13.865390">
                <ele>-1.785278</ele>
                <time>2004-07-31T08:38:02Z</time>
            </trkpt>
            <trkpt lon="100.799625" lat="13.865304">
                <ele>-1.785278</ele>
                <time>2004-07-31T08:38:04Z</time>
            </trkpt>
            <trkpt lon="100.799539" lat="13.865111">
                <ele>-1.785278</ele>
                <time>2004-07-31T08:38:14Z</time>
            </trkpt>
            <trkpt lon="100.799518" lat="13.865132">
                <ele>-1.785278</ele>
                <time>2004-07-31T08:38:21Z</time>
            </trkpt>
            <trkpt lon="100.799496" lat="13.865047">
                <ele>-1.785278</ele>
                <time>2004-07-31T08:38:26Z</time>
            </trkpt>
            <trkpt lon="100.799303" lat="13.864532">
                <ele>-0.824097</ele>
                <time>2004-07-31T08:38:42Z</time>
            </trkpt>
            <trkpt lon="100.799196" lat="13.864231">
                <ele>-0.824097</ele>
                <time>2004-07-31T08:38:54Z</time>
            </trkpt>
            <trkpt lon="100.799110" lat="13.864210">
                <ele>-0.824097</ele>
                <time>2004-07-31T08:39:00Z</time>
            </trkpt>
            <trkpt lon="100.799067" lat="13.864253">
                <ele>-0.824097</ele>
                <time>2004-07-31T08:39:03Z</time>
            </trkpt>
            <trkpt lon="100.798831" lat="13.864231">
                <ele>-1.785278</ele>
                <time>2004-07-31T08:39:14Z</time>
            </trkpt>
            <trkpt lon="100.798552" lat="13.863673">
                <ele>-2.265991</ele>
                <time>2004-07-31T08:39:33Z</time>
            </trkpt>
            <trkpt lon="100.798423" lat="13.863480">
                <ele>-2.265991</ele>
                <time>2004-07-31T08:39:40Z</time>
            </trkpt>
            <trkpt lon="100.798466" lat="13.863394">
                <ele>-1.304688</ele>
                <time>2004-07-31T08:39:44Z</time>
            </trkpt>
            <trkpt lon="100.798531" lat="13.863373">
                <ele>-1.304688</ele>
                <time>2004-07-31T08:39:46Z</time>
            </trkpt>
            <trkpt lon="100.798552" lat="13.862987">
                <ele>-2.746704</ele>
                <time>2004-07-31T08:39:57Z</time>
            </trkpt>
            <trkpt lon="100.798531" lat="13.862708">
                <ele>-2.746704</ele>
                <time>2004-07-31T08:40:05Z</time>
            </trkpt>
            <trkpt lon="100.798445" lat="13.862364">
                <ele>-2.265991</ele>
                <time>2004-07-31T08:40:20Z</time>
            </trkpt>
            <trkpt lon="100.797908" lat="13.862193">
                <ele>-2.746704</ele>
                <time>2004-07-31T08:40:33Z</time>
            </trkpt>
            <trkpt lon="100.797758" lat="13.862236">
                <ele>-2.746704</ele>
                <time>2004-07-31T08:40:37Z</time>
            </trkpt>
            <trkpt lon="100.797522" lat="13.862364">
                <ele>-4.188599</ele>
                <time>2004-07-31T08:40:45Z</time>
            </trkpt>
            <trkpt lon="100.797479" lat="13.862300">
                <ele>-3.227295</ele>
                <time>2004-07-31T08:40:50Z</time>
            </trkpt>
            <trkpt lon="100.797436" lat="13.861914">
                <ele>-0.343384</ele>
                <time>2004-07-31T08:41:08Z</time>
            </trkpt>
            <trkpt lon="100.797329" lat="13.861763">
                <ele>2.540649</ele>
                <time>2004-07-31T08:41:20Z</time>
            </trkpt>
            <trkpt lon="100.797265" lat="13.861806">
                <ele>3.021240</ele>
                <time>2004-07-31T08:41:25Z</time>
            </trkpt>
            <trkpt lon="100.796793" lat="13.862128">
                <ele>2.060059</ele>
                <time>2004-07-31T08:41:41Z</time>
            </trkpt>
            <trkpt lon="100.796750" lat="13.862150">
                <ele>2.060059</ele>
                <time>2004-07-31T08:41:42Z</time>
            </trkpt>
            <trkpt lon="100.796385" lat="13.862901">
                <ele>1.098633</ele>
                <time>2004-07-31T08:41:59Z</time>
            </trkpt>
            <trkpt lon="100.795891" lat="13.864059">
                <ele>0.618042</ele>
                <time>2004-07-31T08:42:22Z</time>
            </trkpt>
            <trkpt lon="100.795484" lat="13.865283">
                <ele>0.137451</ele>
                <time>2004-07-31T08:42:44Z</time>
            </trkpt>
            <trkpt lon="100.795054" lat="13.866742">
                <ele>-0.343384</ele>
                <time>2004-07-31T08:43:09Z</time>
            </trkpt>
            <trkpt lon="100.794733" lat="13.867900">
                <ele>-1.304688</ele>
                <time>2004-07-31T08:43:29Z</time>
            </trkpt>
            <trkpt lon="100.794561" lat="13.868523">
                <ele>-1.304688</ele>
                <time>2004-07-31T08:43:40Z</time>
            </trkpt>
            <trkpt lon="100.794625" lat="13.868802">
                <ele>-1.304688</ele>
                <time>2004-07-31T08:43:45Z</time>
            </trkpt>
            <trkpt lon="100.795054" lat="13.869381">
                <ele>-1.785278</ele>
                <time>2004-07-31T08:43:57Z</time>
            </trkpt>
            <trkpt lon="100.795076" lat="13.869638">
                <ele>-0.343384</ele>
                <time>2004-07-31T08:44:02Z</time>
            </trkpt>
            <trkpt lon="100.794840" lat="13.870497">
                <ele>0.137451</ele>
                <time>2004-07-31T08:44:21Z</time>
            </trkpt>
            <trkpt lon="100.794475" lat="13.871655">
                <ele>0.137451</ele>
                <time>2004-07-31T08:44:44Z</time>
            </trkpt>
            <trkpt lon="100.794153" lat="13.872578">
                <ele>-0.343384</ele>
                <time>2004-07-31T08:45:02Z</time>
            </trkpt>
            <trkpt lon="100.793617" lat="13.873823">
                <ele>0.137451</ele>
                <time>2004-07-31T08:45:25Z</time>
            </trkpt>
            <trkpt lon="100.793273" lat="13.874831">
                <ele>-0.824097</ele>
                <time>2004-07-31T08:45:43Z</time>
            </trkpt>
            <trkpt lon="100.793037" lat="13.875475">
                <ele>-1.304688</ele>
                <time>2004-07-31T08:45:55Z</time>
            </trkpt>
            <trkpt lon="100.792930" lat="13.875775">
                <ele>-1.304688</ele>
                <time>2004-07-31T08:46:02Z</time>
            </trkpt>
            <trkpt lon="100.792694" lat="13.876505">
                <ele>-2.265991</ele>
                <time>2004-07-31T08:46:18Z</time>
            </trkpt>
            <trkpt lon="100.792458" lat="13.877170">
                <ele>-2.746704</ele>
                <time>2004-07-31T08:46:35Z</time>
            </trkpt>
            <trkpt lon="100.792286" lat="13.877513">
                <ele>-2.265991</ele>
                <time>2004-07-31T08:46:47Z</time>
            </trkpt>
            <trkpt lon="100.792093" lat="13.878007">
                <ele>-1.785278</ele>
                <time>2004-07-31T08:47:01Z</time>
            </trkpt>
            <trkpt lon="100.791922" lat="13.878500">
                <ele>-2.746704</ele>
                <time>2004-07-31T08:47:18Z</time>
            </trkpt>
            <trkpt lon="100.791900" lat="13.878586">
                <ele>-2.265991</ele>
                <time>2004-07-31T08:47:20Z</time>
            </trkpt>
            <trkpt lon="100.791643" lat="13.879337">
                <ele>-0.824097</ele>
                <time>2004-07-31T08:47:37Z</time>
            </trkpt>
            <trkpt lon="100.791299" lat="13.880389">
                <ele>0.137451</ele>
                <time>2004-07-31T08:47:59Z</time>
            </trkpt>
            <trkpt lon="100.790977" lat="13.881290">
                <ele>2.060059</ele>
                <time>2004-07-31T08:48:18Z</time>
            </trkpt>
            <trkpt lon="100.790849" lat="13.881719">
                <ele>2.540649</ele>
                <time>2004-07-31T08:48:29Z</time>
            </trkpt>
            <trkpt lon="100.790870" lat="13.881741">
                <ele>2.060059</ele>
                <time>2004-07-31T08:48:40Z</time>
            </trkpt>
            <trkpt lon="100.790849" lat="13.881762">
                <ele>3.021240</ele>
                <time>2004-07-31T08:48:46Z</time>
            </trkpt>
            <trkpt lon="100.790527" lat="13.881483">
                <ele>2.540649</ele>
                <time>2004-07-31T08:49:03Z</time>
            </trkpt>
            <trkpt lon="100.790162" lat="13.881140">
                <ele>3.021240</ele>
                <time>2004-07-31T08:49:25Z</time>
            </trkpt>
            <trkpt lon="100.790162" lat="13.881183">
                <ele>4.943848</ele>
                <time>2004-07-31T08:49:43Z</time>
            </trkpt>
            <trkpt lon="100.790462" lat="13.881462">
                <ele>2.060059</ele>
                <time>2004-07-31T08:49:57Z</time>
            </trkpt>
            <trkpt lon="100.790956" lat="13.881869">
                <ele>2.060059</ele>
                <time>2004-07-31T08:50:13Z</time>
            </trkpt>
            <trkpt lon="100.791042" lat="13.881955">
                <ele>2.060059</ele>
                <time>2004-07-31T08:50:16Z</time>
            </trkpt>
            <trkpt lon="100.791471" lat="13.882663">
                <ele>2.540649</ele>
                <time>2004-07-31T08:50:35Z</time>
            </trkpt>
            <trkpt lon="100.791836" lat="13.883221">
                <ele>3.021240</ele>
                <time>2004-07-31T08:50:51Z</time>
            </trkpt>
            <trkpt lon="100.792437" lat="13.883951">
                <ele>3.501953</ele>
                <time>2004-07-31T08:51:11Z</time>
            </trkpt>
            <trkpt lon="100.792673" lat="13.884702">
                <ele>3.982666</ele>
                <time>2004-07-31T08:51:28Z</time>
            </trkpt>
            <trkpt lon="100.792801" lat="13.885603">
                <ele>5.424561</ele>
                <time>2004-07-31T08:51:46Z</time>
            </trkpt>
            <trkpt lon="100.792909" lat="13.885753">
                <ele>5.424561</ele>
                <time>2004-07-31T08:51:50Z</time>
            </trkpt>
            <trkpt lon="100.792994" lat="13.885839">
                <ele>4.943848</ele>
                <time>2004-07-31T08:51:53Z</time>
            </trkpt>
            <trkpt lon="100.793166" lat="13.885903">
                <ele>4.943848</ele>
                <time>2004-07-31T08:51:57Z</time>
            </trkpt>
            <trkpt lon="100.794132" lat="13.886139">
                <ele>2.540649</ele>
                <time>2004-07-31T08:52:17Z</time>
            </trkpt>
            <trkpt lon="100.794175" lat="13.886161">
                <ele>2.540649</ele>
                <time>2004-07-31T08:52:18Z</time>
            </trkpt>
            <trkpt lon="100.794604" lat="13.886633">
                <ele>3.501953</ele>
                <time>2004-07-31T08:52:31Z</time>
            </trkpt>
            <trkpt lon="100.794818" lat="13.887126">
                <ele>4.463257</ele>
                <time>2004-07-31T08:52:41Z</time>
            </trkpt>
            <trkpt lon="100.794947" lat="13.888156">
                <ele>3.021240</ele>
                <time>2004-07-31T08:52:59Z</time>
            </trkpt>
            <trkpt lon="100.795140" lat="13.889036">
                <ele>2.540649</ele>
                <time>2004-07-31T08:53:16Z</time>
            </trkpt>
            <trkpt lon="100.795140" lat="13.889143">
                <ele>3.501953</ele>
                <time>2004-07-31T08:53:20Z</time>
            </trkpt>
            <trkpt lon="100.795012" lat="13.889272">
                <ele>2.060059</ele>
                <time>2004-07-31T08:53:28Z</time>
            </trkpt>
            <trkpt lon="100.795140" lat="13.889422">
                <ele>1.579346</ele>
                <time>2004-07-31T08:53:34Z</time>
            </trkpt>
            <trkpt lon="100.795591" lat="13.890088">
                <ele>1.579346</ele>
                <time>2004-07-31T08:53:50Z</time>
            </trkpt>
            <trkpt lon="100.795612" lat="13.890152">
                <ele>1.579346</ele>
                <time>2004-07-31T08:53:51Z</time>
            </trkpt>
            <trkpt lon="100.795720" lat="13.890495">
                <ele>1.579346</ele>
                <time>2004-07-31T08:53:58Z</time>
            </trkpt>
            <trkpt lon="100.795698" lat="13.890688">
                <ele>1.098633</ele>
                <time>2004-07-31T08:54:02Z</time>
            </trkpt>
            <trkpt lon="100.795548" lat="13.890924">
                <ele>0.618042</ele>
                <time>2004-07-31T08:54:08Z</time>
            </trkpt>
            <trkpt lon="100.794840" lat="13.891225">
                <ele>0.618042</ele>
                <time>2004-07-31T08:54:23Z</time>
            </trkpt>
            <trkpt lon="100.794647" lat="13.891311">
                <ele>1.098633</ele>
                <time>2004-07-31T08:54:27Z</time>
            </trkpt>
            <trkpt lon="100.794024" lat="13.891718">
                <ele>0.137451</ele>
                <time>2004-07-31T08:54:44Z</time>
            </trkpt>
            <trkpt lon="100.793810" lat="13.891826">
                <ele>0.618042</ele>
                <time>2004-07-31T08:54:54Z</time>
            </trkpt>
            <trkpt lon="100.793445" lat="13.891954">
                <ele>0.137451</ele>
                <time>2004-07-31T08:55:10Z</time>
            </trkpt>
            <trkpt lon="100.793381" lat="13.891890">
                <ele>1.098633</ele>
                <time>2004-07-31T08:55:21Z</time>
            </trkpt>
            <trkpt lon="100.793381" lat="13.891890">
                <ele>1.579346</ele>
                <time>2004-07-31T08:55:24Z</time>
            </trkpt>
            <trkpt lon="100.793338" lat="13.891804">
                <ele>1.579346</ele>
                <time>2004-07-31T08:55:28Z</time>
            </trkpt>
            <trkpt lon="100.792994" lat="13.891225">
                <ele>2.060059</ele>
                <time>2004-07-31T08:55:44Z</time>
            </trkpt>
            <trkpt lon="100.792909" lat="13.891118">
                <ele>2.060059</ele>
                <time>2004-07-31T08:55:54Z</time>
            </trkpt>
            <trkpt lon="100.792909" lat="13.891096">
                <ele>2.060059</ele>
                <time>2004-07-31T08:56:38Z</time>
            </trkpt>
            <trkpt lon="100.792737" lat="13.890774">
                <ele>2.060059</ele>
                <time>2004-07-31T08:56:49Z</time>
            </trkpt>
            <trkpt lon="100.792501" lat="13.890388">
                <ele>2.060059</ele>
                <time>2004-07-31T08:56:58Z</time>
            </trkpt>
            <trkpt lon="100.792265" lat="13.890281">
                <ele>2.060059</ele>
                <time>2004-07-31T08:57:05Z</time>
            </trkpt>
            <trkpt lon="100.792243" lat="13.890195">
                <ele>2.060059</ele>
                <time>2004-07-31T08:57:07Z</time>
            </trkpt>
            <trkpt lon="100.792029" lat="13.889894">
                <ele>2.060059</ele>
                <time>2004-07-31T08:57:15Z</time>
            </trkpt>
            <trkpt lon="100.791643" lat="13.889723">
                <ele>2.060059</ele>
                <time>2004-07-31T08:57:24Z</time>
            </trkpt>
            <trkpt lon="100.791492" lat="13.889658">
                <ele>2.540649</ele>
                <time>2004-07-31T08:57:27Z</time>
            </trkpt>
            <trkpt lon="100.791342" lat="13.889616">
                <ele>2.540649</ele>
                <time>2004-07-31T08:57:30Z</time>
            </trkpt>
            <trkpt lon="100.790763" lat="13.889380">
                <ele>2.060059</ele>
                <time>2004-07-31T08:57:42Z</time>
            </trkpt>
            <trkpt lon="100.790098" lat="13.889143">
                <ele>2.060059</ele>
                <time>2004-07-31T08:57:56Z</time>
            </trkpt>
            <trkpt lon="100.789475" lat="13.888886">
                <ele>2.060059</ele>
                <time>2004-07-31T08:58:09Z</time>
            </trkpt>
            <trkpt lon="100.788617" lat="13.888414">
                <ele>2.540649</ele>
                <time>2004-07-31T08:58:26Z</time>
            </trkpt>
            <trkpt lon="100.788059" lat="13.888092">
                <ele>2.060059</ele>
                <time>2004-07-31T08:58:38Z</time>
            </trkpt>
            <trkpt lon="100.787802" lat="13.888006">
                <ele>2.060059</ele>
                <time>2004-07-31T08:58:43Z</time>
            </trkpt>
            <trkpt lon="100.786836" lat="13.887577">
                <ele>2.060059</ele>
                <time>2004-07-31T08:59:01Z</time>
            </trkpt>
            <trkpt lon="100.786793" lat="13.887556">
                <ele>2.060059</ele>
                <time>2004-07-31T08:59:02Z</time>
            </trkpt>
            <trkpt lon="100.786321" lat="13.887320">
                <ele>1.579346</ele>
                <time>2004-07-31T08:59:12Z</time>
            </trkpt>
            <trkpt lon="100.785978" lat="13.887169">
                <ele>2.060059</ele>
                <time>2004-07-31T08:59:19Z</time>
            </trkpt>
            <trkpt lon="100.785356" lat="13.886912">
                <ele>2.060059</ele>
                <time>2004-07-31T08:59:34Z</time>
            </trkpt>
            <trkpt lon="100.785227" lat="13.886869">
                <ele>1.098633</ele>
                <time>2004-07-31T08:59:41Z</time>
            </trkpt>
            <trkpt lon="100.785120" lat="13.886955">
                <ele>1.098633</ele>
                <time>2004-07-31T08:59:51Z</time>
            </trkpt>
            <trkpt lon="100.785055" lat="13.887148">
                <ele>-1.304688</ele>
                <time>2004-07-31T09:01:10Z</time>
            </trkpt>
            <trkpt lon="100.784841" lat="13.887255">
                <ele>-0.824097</ele>
                <time>2004-07-31T09:01:16Z</time>
            </trkpt>
            <trkpt lon="100.783961" lat="13.886912">
                <ele>0.618042</ele>
                <time>2004-07-31T09:01:34Z</time>
            </trkpt>
            <trkpt lon="100.783703" lat="13.886847">
                <ele>0.618042</ele>
                <time>2004-07-31T09:01:39Z</time>
            </trkpt>
            <trkpt lon="100.783103" lat="13.886440">
                <ele>0.618042</ele>
                <time>2004-07-31T09:01:53Z</time>
            </trkpt>
            <trkpt lon="100.781901" lat="13.885818">
                <ele>0.618042</ele>
                <time>2004-07-31T09:02:18Z</time>
            </trkpt>
            <trkpt lon="100.780957" lat="13.885260">
                <ele>0.618042</ele>
                <time>2004-07-31T09:02:37Z</time>
            </trkpt>
            <trkpt lon="100.780077" lat="13.884723">
                <ele>1.098633</ele>
                <time>2004-07-31T09:02:55Z</time>
            </trkpt>
            <trkpt lon="100.779691" lat="13.884466">
                <ele>1.098633</ele>
                <time>2004-07-31T09:03:03Z</time>
            </trkpt>
            <trkpt lon="100.779476" lat="13.884315">
                <ele>1.098633</ele>
                <time>2004-07-31T09:03:08Z</time>
            </trkpt>
            <trkpt lon="100.779433" lat="13.884101">
                <ele>0.618042</ele>
                <time>2004-07-31T09:03:14Z</time>
            </trkpt>
            <trkpt lon="100.779648" lat="13.883457">
                <ele>0.618042</ele>
                <time>2004-07-31T09:03:28Z</time>
            </trkpt>
            <trkpt lon="100.779777" lat="13.883071">
                <ele>0.137451</ele>
                <time>2004-07-31T09:03:36Z</time>
            </trkpt>
            <trkpt lon="100.780056" lat="13.882148">
                <ele>-0.343384</ele>
                <time>2004-07-31T09:03:55Z</time>
            </trkpt>
            <trkpt lon="100.780377" lat="13.881075">
                <ele>-0.343384</ele>
                <time>2004-07-31T09:04:17Z</time>
            </trkpt>
            <trkpt lon="100.780613" lat="13.880324">
                <ele>-1.304688</ele>
                <time>2004-07-31T09:04:33Z</time>
            </trkpt>
            <trkpt lon="100.780892" lat="13.879423">
                <ele>-1.304688</ele>
                <time>2004-07-31T09:04:51Z</time>
            </trkpt>
            <trkpt lon="100.781257" lat="13.878307">
                <ele>-0.824097</ele>
                <time>2004-07-31T09:05:12Z</time>
            </trkpt>
            <trkpt lon="100.781579" lat="13.877320">
                <ele>0.137451</ele>
                <time>2004-07-31T09:05:31Z</time>
            </trkpt>
            <trkpt lon="100.781879" lat="13.876612">
                <ele>1.579346</ele>
                <time>2004-07-31T09:05:47Z</time>
            </trkpt>
            <trkpt lon="100.782008" lat="13.876312">
                <ele>0.137451</ele>
                <time>2004-07-31T09:05:53Z</time>
            </trkpt>
            <trkpt lon="100.782394" lat="13.875217">
                <ele>-1.304688</ele>
                <time>2004-07-31T09:06:14Z</time>
            </trkpt>
            <trkpt lon="100.782416" lat="13.875132">
                <ele>-1.304688</ele>
                <time>2004-07-31T09:06:16Z</time>
            </trkpt>
            <trkpt lon="100.782652" lat="13.874466">
                <ele>-0.824097</ele>
                <time>2004-07-31T09:06:30Z</time>
            </trkpt>
            <trkpt lon="100.782738" lat="13.874123">
                <ele>-0.343384</ele>
                <time>2004-07-31T09:06:37Z</time>
            </trkpt>
            <trkpt lon="100.782716" lat="13.873758">
                <ele>-0.343384</ele>
                <time>2004-07-31T09:06:44Z</time>
            </trkpt>
            <trkpt lon="100.782716" lat="13.873651">
                <ele>0.137451</ele>
                <time>2004-07-31T09:06:46Z</time>
            </trkpt>
            <trkpt lon="100.783060" lat="13.872643">
                <ele>0.137451</ele>
                <time>2004-07-31T09:07:05Z</time>
            </trkpt>
            <trkpt lon="100.783424" lat="13.871677">
                <ele>0.618042</ele>
                <time>2004-07-31T09:07:24Z</time>
            </trkpt>
            <trkpt lon="100.783746" lat="13.870819">
                <ele>1.579346</ele>
                <time>2004-07-31T09:07:42Z</time>
            </trkpt>
            <trkpt lon="100.784154" lat="13.869789">
                <ele>0.618042</ele>
                <time>2004-07-31T09:08:02Z</time>
            </trkpt>
            <trkpt lon="100.784132" lat="13.869596">
                <ele>1.098633</ele>
                <time>2004-07-31T09:08:06Z</time>
            </trkpt>
            <trkpt lon="100.784369" lat="13.868930">
                <ele>0.618042</ele>
                <time>2004-07-31T09:08:19Z</time>
            </trkpt>
            <trkpt lon="100.784841" lat="13.867793">
                <ele>1.579346</ele>
                <time>2004-07-31T09:08:42Z</time>
            </trkpt>
            <trkpt lon="100.785291" lat="13.866720">
                <ele>1.579346</ele>
                <time>2004-07-31T09:09:04Z</time>
            </trkpt>
            <trkpt lon="100.785699" lat="13.865733">
                <ele>1.098633</ele>
                <time>2004-07-31T09:09:24Z</time>
            </trkpt>
            <trkpt lon="100.785935" lat="13.865197">
                <ele>1.098633</ele>
                <time>2004-07-31T09:09:35Z</time>
            </trkpt>
            <trkpt lon="100.785871" lat="13.864939">
                <ele>1.098633</ele>
                <time>2004-07-31T09:09:41Z</time>
            </trkpt>
            <trkpt lon="100.785313" lat="13.864725">
                <ele>1.579346</ele>
                <time>2004-07-31T09:09:53Z</time>
            </trkpt>
            <trkpt lon="100.785420" lat="13.864467">
                <ele>2.060059</ele>
                <time>2004-07-31T09:10:05Z</time>
            </trkpt>
            <trkpt lon="100.785806" lat="13.863630">
                <ele>2.540649</ele>
                <time>2004-07-31T09:10:25Z</time>
            </trkpt>
            <trkpt lon="100.786192" lat="13.862708">
                <ele>3.501953</ele>
                <time>2004-07-31T09:10:48Z</time>
            </trkpt>
            <trkpt lon="100.786471" lat="13.862000">
                <ele>2.540649</ele>
                <time>2004-07-31T09:11:09Z</time>
            </trkpt>
            <trkpt lon="100.786729" lat="13.861527">
                <ele>3.982666</ele>
                <time>2004-07-31T09:11:29Z</time>
            </trkpt>
            <trkpt lon="100.786922" lat="13.861034">
                <ele>3.501953</ele>
                <time>2004-07-31T09:11:46Z</time>
            </trkpt>
            <trkpt lon="100.787244" lat="13.860240">
                <ele>3.501953</ele>
                <time>2004-07-31T09:12:09Z</time>
            </trkpt>
            <trkpt lon="100.787544" lat="13.859403">
                <ele>3.501953</ele>
                <time>2004-07-31T09:12:28Z</time>
            </trkpt>
            <trkpt lon="100.787694" lat="13.859317">
                <ele>3.501953</ele>
                <time>2004-07-31T09:12:32Z</time>
            </trkpt>
            <trkpt lon="100.787973" lat="13.859296">
                <ele>3.021240</ele>
                <time>2004-07-31T09:12:38Z</time>
            </trkpt>
            <trkpt lon="100.788145" lat="13.859317">
                <ele>3.021240</ele>
                <time>2004-07-31T09:12:42Z</time>
            </trkpt>
            <trkpt lon="100.788274" lat="13.859296">
                <ele>3.021240</ele>
                <time>2004-07-31T09:12:45Z</time>
            </trkpt>
            <trkpt lon="100.788767" lat="13.859382">
                <ele>3.021240</ele>
                <time>2004-07-31T09:12:57Z</time>
            </trkpt>
            <trkpt lon="100.788789" lat="13.859339">
                <ele>2.540649</ele>
                <time>2004-07-31T09:13:01Z</time>
            </trkpt>
            <trkpt lon="100.788939" lat="13.858931">
                <ele>3.021240</ele>
                <time>2004-07-31T09:13:14Z</time>
            </trkpt>
            <trkpt lon="100.789368" lat="13.858008">
                <ele>3.982666</ele>
                <time>2004-07-31T09:13:35Z</time>
            </trkpt>
            <trkpt lon="100.789883" lat="13.856936">
                <ele>5.424561</ele>
                <time>2004-07-31T09:13:57Z</time>
            </trkpt>
            <trkpt lon="100.790505" lat="13.855605">
                <ele>4.943848</ele>
                <time>2004-07-31T09:14:24Z</time>
            </trkpt>
            <trkpt lon="100.791042" lat="13.854382">
                <ele>5.424561</ele>
                <time>2004-07-31T09:14:48Z</time>
            </trkpt>
            <trkpt lon="100.791514" lat="13.853288">
                <ele>6.385864</ele>
                <time>2004-07-31T09:15:10Z</time>
            </trkpt>
            <trkpt lon="100.792072" lat="13.852065">
                <ele>5.905273</ele>
                <time>2004-07-31T09:15:34Z</time>
            </trkpt>
            <trkpt lon="100.792651" lat="13.850842">
                <ele>6.866455</ele>
                <time>2004-07-31T09:15:59Z</time>
            </trkpt>
            <trkpt lon="100.793166" lat="13.849726">
                <ele>5.905273</ele>
                <time>2004-07-31T09:16:22Z</time>
            </trkpt>
            <trkpt lon="100.793703" lat="13.848546">
                <ele>6.385864</ele>
                <time>2004-07-31T09:16:45Z</time>
            </trkpt>
            <trkpt lon="100.793746" lat="13.848374">
                <ele>6.385864</ele>
                <time>2004-07-31T09:16:50Z</time>
            </trkpt>
            <trkpt lon="100.793853" lat="13.848374">
                <ele>5.905273</ele>
                <time>2004-07-31T09:16:59Z</time>
            </trkpt>
            <trkpt lon="100.794003" lat="13.848460">
                <ele>3.501953</ele>
                <time>2004-07-31T09:17:15Z</time>
            </trkpt>
            <trkpt lon="100.794690" lat="13.848867">
                <ele>2.540649</ele>
                <time>2004-07-31T09:17:30Z</time>
            </trkpt>
            <trkpt lon="100.795999" lat="13.849554">
                <ele>2.060059</ele>
                <time>2004-07-31T09:17:54Z</time>
            </trkpt>
            <trkpt lon="100.797029" lat="13.850069">
                <ele>3.021240</ele>
                <time>2004-07-31T09:18:13Z</time>
            </trkpt>
            <trkpt lon="100.798209" lat="13.850670">
                <ele>3.021240</ele>
                <time>2004-07-31T09:18:33Z</time>
            </trkpt>
            <trkpt lon="100.799067" lat="13.851056">
                <ele>2.540649</ele>
                <time>2004-07-31T09:18:49Z</time>
            </trkpt>
            <trkpt lon="100.800505" lat="13.851678">
                <ele>2.060059</ele>
                <time>2004-07-31T09:19:14Z</time>
            </trkpt>
            <trkpt lon="100.801814" lat="13.852258">
                <ele>1.098633</ele>
                <time>2004-07-31T09:19:39Z</time>
            </trkpt>
            <trkpt lon="100.801921" lat="13.852301">
                <ele>1.098633</ele>
                <time>2004-07-31T09:19:49Z</time>
            </trkpt>
            <trkpt lon="100.802050" lat="13.852172">
                <ele>1.098633</ele>
                <time>2004-07-31T09:19:56Z</time>
            </trkpt>
            <trkpt lon="100.802135" lat="13.851914">
                <ele>2.060059</ele>
                <time>2004-07-31T09:20:02Z</time>
            </trkpt>
            <trkpt lon="100.802135" lat="13.851786">
                <ele>3.021240</ele>
                <time>2004-07-31T09:20:05Z</time>
            </trkpt>
            <trkpt lon="100.802436" lat="13.851163">
                <ele>3.501953</ele>
                <time>2004-07-31T09:20:25Z</time>
            </trkpt>
            <trkpt lon="100.802522" lat="13.850970">
                <ele>5.424561</ele>
                <time>2004-07-31T09:20:48Z</time>
            </trkpt>
            <trkpt lon="100.802650" lat="13.850906">
                <ele>4.463257</ele>
                <time>2004-07-31T09:20:55Z</time>
            </trkpt>
            <trkpt lon="100.802736" lat="13.850906">
                <ele>3.982666</ele>
                <time>2004-07-31T09:21:08Z</time>
            </trkpt>
            <trkpt lon="100.802779" lat="13.850863">
                <ele>3.501953</ele>
                <time>2004-07-31T09:21:26Z</time>
            </trkpt>
            <trkpt lon="100.802801" lat="13.850820">
                <ele>2.540649</ele>
                <time>2004-07-31T09:21:42Z</time>
            </trkpt>
            <trkpt lon="100.802758" lat="13.850906">
                <ele>3.021240</ele>
                <time>2004-07-31T09:22:36Z</time>
            </trkpt>
            <trkpt lon="100.802736" lat="13.851035">
                <ele>3.501953</ele>
                <time>2004-07-31T09:23:09Z</time>
            </trkpt>
            <trkpt lon="100.802758" lat="13.850949">
                <ele>1.579346</ele>
                <time>2004-07-31T09:23:41Z</time>
            </trkpt>
            <trkpt lon="100.802758" lat="13.850970">
                <ele>1.098633</ele>
                <time>2004-07-31T09:23:43Z</time>
            </trkpt>
            <trkpt lon="100.802543" lat="13.851163">
                <ele>1.098633</ele>
                <time>2004-07-31T09:24:12Z</time>
            </trkpt>
        </trkseg>
    </trk>
    <trk>
        <name>July 2004 (shortcut)</name>
        <extensions>
            <gpxx:TrackExtension>
                <gpxx:DisplayColor>DarkBlue</gpxx:DisplayColor>
            </gpxx:TrackExtension>
        </extensions>
        <trkseg>
            <trkpt lon="100.802886" lat="13.850906">
                <ele>27.054321</ele>
                <time>2004-07-31T09:47:32Z</time>
            </trkpt>
            <trkpt lon="100.802844" lat="13.850927">
                <ele>27.054321</ele>
                <time>2004-07-31T09:47:47Z</time>
            </trkpt>
            <trkpt lon="100.802736" lat="13.850949">
                <ele>19.844360</ele>
                <time>2004-07-31T09:48:25Z</time>
            </trkpt>
            <trkpt lon="100.802650" lat="13.850906">
                <ele>5.905273</ele>
                <time>2004-07-31T09:49:14Z</time>
            </trkpt>
            <trkpt lon="100.802522" lat="13.850927">
                <ele>5.905273</ele>
                <time>2004-07-31T09:49:29Z</time>
            </trkpt>
            <trkpt lon="100.802414" lat="13.851099">
                <ele>3.021240</ele>
                <time>2004-07-31T09:49:44Z</time>
            </trkpt>
            <trkpt lon="100.802350" lat="13.851249">
                <ele>0.618042</ele>
                <time>2004-07-31T09:49:59Z</time>
            </trkpt>
            <trkpt lon="100.802350" lat="13.851271">
                <ele>0.618042</ele>
                <time>2004-07-31T09:50:00Z</time>
            </trkpt>
            <trkpt lon="100.802264" lat="13.851378">
                <ele>0.618042</ele>
                <time>2004-07-31T09:50:04Z</time>
            </trkpt>
            <trkpt lon="100.802178" lat="13.851550">
                <ele>0.618042</ele>
                <time>2004-07-31T09:50:08Z</time>
            </trkpt>
            <trkpt lon="100.801964" lat="13.852150">
                <ele>0.137451</ele>
                <time>2004-07-31T09:50:22Z</time>
            </trkpt>
            <trkpt lon="100.801942" lat="13.852172">
                <ele>7.827881</ele>
                <time>2004-07-31T09:50:35Z</time>
            </trkpt>
            <trkpt lon="100.801535" lat="13.852043">
                <ele>6.385864</ele>
                <time>2004-07-31T09:50:50Z</time>
            </trkpt>
            <trkpt lon="100.800655" lat="13.851657">
                <ele>3.021240</ele>
                <time>2004-07-31T09:51:12Z</time>
            </trkpt>
            <trkpt lon="100.799968" lat="13.851378">
                <ele>2.060059</ele>
                <time>2004-07-31T09:51:29Z</time>
            </trkpt>
            <trkpt lon="100.799024" lat="13.850970">
                <ele>2.540649</ele>
                <time>2004-07-31T09:51:47Z</time>
            </trkpt>
            <trkpt lon="100.798488" lat="13.850713">
                <ele>3.501953</ele>
                <time>2004-07-31T09:51:59Z</time>
            </trkpt>
            <trkpt lon="100.797286" lat="13.850133">
                <ele>2.540649</ele>
                <time>2004-07-31T09:52:21Z</time>
            </trkpt>
            <trkpt lon="100.795956" lat="13.849447">
                <ele>2.540649</ele>
                <time>2004-07-31T09:52:47Z</time>
            </trkpt>
            <trkpt lon="100.794604" lat="13.848739">
                <ele>2.540649</ele>
                <time>2004-07-31T09:53:15Z</time>
            </trkpt>
            <trkpt lon="100.793810" lat="13.848288">
                <ele>3.501953</ele>
                <time>2004-07-31T09:53:34Z</time>
            </trkpt>
            <trkpt lon="100.793724" lat="13.848245">
                <ele>3.021240</ele>
                <time>2004-07-31T09:53:39Z</time>
            </trkpt>
            <trkpt lon="100.793681" lat="13.848331">
                <ele>2.540649</ele>
                <time>2004-07-31T09:53:43Z</time>
            </trkpt>
            <trkpt lon="100.793467" lat="13.848932">
                <ele>2.060059</ele>
                <time>2004-07-31T09:53:58Z</time>
            </trkpt>
            <trkpt lon="100.792952" lat="13.850026">
                <ele>1.579346</ele>
                <time>2004-07-31T09:54:17Z</time>
            </trkpt>
            <trkpt lon="100.792158" lat="13.851743">
                <ele>2.060059</ele>
                <time>2004-07-31T09:54:44Z</time>
            </trkpt>
            <trkpt lon="100.791471" lat="13.853223">
                <ele>2.060059</ele>
                <time>2004-07-31T09:55:07Z</time>
            </trkpt>
            <trkpt lon="100.791256" lat="13.853674">
                <ele>1.579346</ele>
                <time>2004-07-31T09:55:17Z</time>
            </trkpt>
            <trkpt lon="100.791085" lat="13.854082">
                <ele>2.060059</ele>
                <time>2004-07-31T09:55:29Z</time>
            </trkpt>
            <trkpt lon="100.790827" lat="13.854833">
                <ele>2.060059</ele>
                <time>2004-07-31T09:55:46Z</time>
            </trkpt>
            <trkpt lon="100.790398" lat="13.855734">
                <ele>2.060059</ele>
                <time>2004-07-31T09:56:03Z</time>
            </trkpt>
            <trkpt lon="100.789561" lat="13.857493">
                <ele>2.060059</ele>
                <time>2004-07-31T09:56:31Z</time>
            </trkpt>
            <trkpt lon="100.788853" lat="13.858995">
                <ele>1.579346</ele>
                <time>2004-07-31T09:56:54Z</time>
            </trkpt>
            <trkpt lon="100.788338" lat="13.860476">
                <ele>2.060059</ele>
                <time>2004-07-31T09:57:16Z</time>
            </trkpt>
            <trkpt lon="100.787587" lat="13.862214">
                <ele>2.060059</ele>
                <time>2004-07-31T09:57:43Z</time>
            </trkpt>
            <trkpt lon="100.786858" lat="13.863780">
                <ele>2.060059</ele>
                <time>2004-07-31T09:58:07Z</time>
            </trkpt>
            <trkpt lon="100.786514" lat="13.864467">
                <ele>2.540649</ele>
                <time>2004-07-31T09:58:18Z</time>
            </trkpt>
            <trkpt lon="100.785892" lat="13.865175">
                <ele>5.424561</ele>
                <time>2004-07-31T09:58:32Z</time>
            </trkpt>
            <trkpt lon="100.785334" lat="13.866506">
                <ele>3.982666</ele>
                <time>2004-07-31T09:58:53Z</time>
            </trkpt>
            <trkpt lon="100.784647" lat="13.868222">
                <ele>4.463257</ele>
                <time>2004-07-31T09:59:18Z</time>
            </trkpt>
            <trkpt lon="100.784154" lat="13.869424">
                <ele>4.463257</ele>
                <time>2004-07-31T09:59:36Z</time>
            </trkpt>
            <trkpt lon="100.784175" lat="13.869660">
                <ele>4.463257</ele>
                <time>2004-07-31T09:59:40Z</time>
            </trkpt>
            <trkpt lon="100.783961" lat="13.870304">
                <ele>4.463257</ele>
                <time>2004-07-31T09:59:50Z</time>
            </trkpt>
            <trkpt lon="100.783510" lat="13.871484">
                <ele>5.905273</ele>
                <time>2004-07-31T10:00:08Z</time>
            </trkpt>
            <trkpt lon="100.782952" lat="13.873007">
                <ele>4.943848</ele>
                <time>2004-07-31T10:00:31Z</time>
            </trkpt>
            <trkpt lon="100.782759" lat="13.873565">
                <ele>7.347168</ele>
                <time>2004-07-31T10:00:40Z</time>
            </trkpt>
            <trkpt lon="100.782738" lat="13.873758">
                <ele>7.347168</ele>
                <time>2004-07-31T10:00:43Z</time>
            </trkpt>
            <trkpt lon="100.782759" lat="13.874381">
                <ele>6.385864</ele>
                <time>2004-07-31T10:00:53Z</time>
            </trkpt>
            <trkpt lon="100.782373" lat="13.875325">
                <ele>4.943848</ele>
                <time>2004-07-31T10:01:09Z</time>
            </trkpt>
            <trkpt lon="100.781987" lat="13.876419">
                <ele>2.540649</ele>
                <time>2004-07-31T10:01:27Z</time>
            </trkpt>
            <trkpt lon="100.781772" lat="13.876848">
                <ele>3.021240</ele>
                <time>2004-07-31T10:01:39Z</time>
            </trkpt>
            <trkpt lon="100.781643" lat="13.877256">
                <ele>1.579346</ele>
                <time>2004-07-31T10:01:51Z</time>
            </trkpt>
            <trkpt lon="100.781343" lat="13.878157">
                <ele>1.098633</ele>
                <time>2004-07-31T10:02:09Z</time>
            </trkpt>
            <trkpt lon="100.781085" lat="13.878973">
                <ele>0.137451</ele>
                <time>2004-07-31T10:02:24Z</time>
            </trkpt>
            <trkpt lon="100.780785" lat="13.879874">
                <ele>-0.343384</ele>
                <time>2004-07-31T10:02:41Z</time>
            </trkpt>
            <trkpt lon="100.780528" lat="13.880689">
                <ele>-2.746704</ele>
                <time>2004-07-31T10:02:58Z</time>
            </trkpt>
            <trkpt lon="100.780356" lat="13.881290">
                <ele>-3.227295</ele>
                <time>2004-07-31T10:03:12Z</time>
            </trkpt>
            <trkpt lon="100.780249" lat="13.881569">
                <ele>-3.227295</ele>
                <time>2004-07-31T10:03:19Z</time>
            </trkpt>
            <trkpt lon="100.779970" lat="13.882449">
                <ele>-3.227295</ele>
                <time>2004-07-31T10:03:39Z</time>
            </trkpt>
            <trkpt lon="100.779734" lat="13.883221">
                <ele>-4.188599</ele>
                <time>2004-07-31T10:03:55Z</time>
            </trkpt>
            <trkpt lon="100.779476" lat="13.883951">
                <ele>-3.707886</ele>
                <time>2004-07-31T10:04:11Z</time>
            </trkpt>
            <trkpt lon="100.779455" lat="13.884058">
                <ele>-3.227295</ele>
                <time>2004-07-31T10:04:13Z</time>
            </trkpt>
            <trkpt lon="100.779519" lat="13.884380">
                <ele>-2.746704</ele>
                <time>2004-07-31T10:04:22Z</time>
            </trkpt>
            <trkpt lon="100.779519" lat="13.884380">
                <ele>-0.343384</ele>
                <time>2004-07-31T10:04:33Z</time>
            </trkpt>
            <trkpt lon="100.779583" lat="13.884401">
                <ele>2.060059</ele>
                <time>2004-07-31T10:05:10Z</time>
            </trkpt>
            <trkpt lon="100.779583" lat="13.884401">
                <ele>2.060059</ele>
                <time>2004-07-31T10:05:32Z</time>
            </trkpt>
            <trkpt lon="100.779884" lat="13.884616">
                <ele>0.618042</ele>
                <time>2004-07-31T10:05:45Z</time>
            </trkpt>
            <trkpt lon="100.780270" lat="13.884873">
                <ele>0.618042</ele>
                <time>2004-07-31T10:05:58Z</time>
            </trkpt>
            <trkpt lon="100.780871" lat="13.885238">
                <ele>0.618042</ele>
                <time>2004-07-31T10:06:14Z</time>
            </trkpt>
            <trkpt lon="100.781751" lat="13.885753">
                <ele>-0.343384</ele>
                <time>2004-07-31T10:06:34Z</time>
            </trkpt>
            <trkpt lon="100.782480" lat="13.886161">
                <ele>-0.343384</ele>
                <time>2004-07-31T10:06:50Z</time>
            </trkpt>
            <trkpt lon="100.783274" lat="13.886547">
                <ele>-0.343384</ele>
                <time>2004-07-31T10:07:08Z</time>
            </trkpt>
            <trkpt lon="100.783746" lat="13.886869">
                <ele>-0.824097</ele>
                <time>2004-07-31T10:07:23Z</time>
            </trkpt>
            <trkpt lon="100.783746" lat="13.886869">
                <ele>-0.343384</ele>
                <time>2004-07-31T10:07:37Z</time>
            </trkpt>
            <trkpt lon="100.783746" lat="13.886890">
                <ele>-3.227295</ele>
                <time>2004-07-31T10:07:55Z</time>
            </trkpt>
            <trkpt lon="100.783768" lat="13.886869">
                <ele>-5.149902</ele>
                <time>2004-07-31T10:08:32Z</time>
            </trkpt>
            <trkpt lon="100.783854" lat="13.886912">
                <ele>-5.149902</ele>
                <time>2004-07-31T10:08:37Z</time>
            </trkpt>
            <trkpt lon="100.784476" lat="13.887126">
                <ele>-3.227295</ele>
                <time>2004-07-31T10:08:53Z</time>
            </trkpt>
            <trkpt lon="100.784883" lat="13.887298">
                <ele>-2.746704</ele>
                <time>2004-07-31T10:09:02Z</time>
            </trkpt>
            <trkpt lon="100.785077" lat="13.887169">
                <ele>-2.265991</ele>
                <time>2004-07-31T10:09:08Z</time>
            </trkpt>
            <trkpt lon="100.785141" lat="13.886998">
                <ele>-2.265991</ele>
                <time>2004-07-31T10:09:12Z</time>
            </trkpt>
            <trkpt lon="100.785377" lat="13.886933">
                <ele>-2.746704</ele>
                <time>2004-07-31T10:09:18Z</time>
            </trkpt>
            <trkpt lon="100.785506" lat="13.886976">
                <ele>-1.785278</ele>
                <time>2004-07-31T10:09:27Z</time>
            </trkpt>
            <trkpt lon="100.785484" lat="13.886955">
                <ele>0.137451</ele>
                <time>2004-07-31T10:09:50Z</time>
            </trkpt>
            <trkpt lon="100.785441" lat="13.886933">
                <ele>0.137451</ele>
                <time>2004-07-31T10:09:54Z</time>
            </trkpt>
            <trkpt lon="100.785377" lat="13.886890">
                <ele>2.060059</ele>
                <time>2004-07-31T10:10:09Z</time>
            </trkpt>
            <trkpt lon="100.785377" lat="13.886890">
                <ele>2.540649</ele>
                <time>2004-07-31T10:10:19Z</time>
            </trkpt>
            <trkpt lon="100.785506" lat="13.886569">
                <ele>0.137451</ele>
                <time>2004-07-31T10:10:36Z</time>
            </trkpt>
            <trkpt lon="100.785613" lat="13.886268">
                <ele>-0.343384</ele>
                <time>2004-07-31T10:10:52Z</time>
            </trkpt>
            <trkpt lon="100.785656" lat="13.886182">
                <ele>-0.824097</ele>
                <time>2004-07-31T10:10:57Z</time>
            </trkpt>
            <trkpt lon="100.785656" lat="13.886096">
                <ele>0.618042</ele>
                <time>2004-07-31T10:11:10Z</time>
            </trkpt>
            <trkpt lon="100.785656" lat="13.886118">
                <ele>0.618042</ele>
                <time>2004-07-31T10:11:14Z</time>
            </trkpt>
            <trkpt lon="100.785549" lat="13.886483">
                <ele>1.579346</ele>
                <time>2004-07-31T10:11:29Z</time>
            </trkpt>
            <trkpt lon="100.785441" lat="13.886762">
                <ele>0.137451</ele>
                <time>2004-07-31T10:11:42Z</time>
            </trkpt>
            <trkpt lon="100.785398" lat="13.886847">
                <ele>-0.343384</ele>
                <time>2004-07-31T10:11:48Z</time>
            </trkpt>
            <trkpt lon="100.785527" lat="13.886933">
                <ele>-0.824097</ele>
                <time>2004-07-31T10:11:53Z</time>
            </trkpt>
            <trkpt lon="100.786042" lat="13.887191">
                <ele>-1.304688</ele>
                <time>2004-07-31T10:12:08Z</time>
            </trkpt>
            <trkpt lon="100.786793" lat="13.887556">
                <ele>-1.785278</ele>
                <time>2004-07-31T10:12:25Z</time>
            </trkpt>
            <trkpt lon="100.787823" lat="13.888049">
                <ele>-1.785278</ele>
                <time>2004-07-31T10:12:47Z</time>
            </trkpt>
            <trkpt lon="100.788016" lat="13.888113">
                <ele>-2.265991</ele>
                <time>2004-07-31T10:12:51Z</time>
            </trkpt>
            <trkpt lon="100.788124" lat="13.888156">
                <ele>-3.227295</ele>
                <time>2004-07-31T10:12:53Z</time>
            </trkpt>
            <trkpt lon="100.788317" lat="13.888242">
                <ele>-4.188599</ele>
                <time>2004-07-31T10:12:57Z</time>
            </trkpt>
            <trkpt lon="100.788982" lat="13.888628">
                <ele>-5.149902</ele>
                <time>2004-07-31T10:13:12Z</time>
            </trkpt>
            <trkpt lon="100.789196" lat="13.888736">
                <ele>-5.149902</ele>
                <time>2004-07-31T10:13:17Z</time>
            </trkpt>
            <trkpt lon="100.790033" lat="13.889122">
                <ele>-3.707886</ele>
                <time>2004-07-31T10:13:36Z</time>
            </trkpt>
            <trkpt lon="100.790699" lat="13.889380">
                <ele>-2.265991</ele>
                <time>2004-07-31T10:13:50Z</time>
            </trkpt>
            <trkpt lon="100.791364" lat="13.889637">
                <ele>-3.707886</ele>
                <time>2004-07-31T10:14:04Z</time>
            </trkpt>
            <trkpt lon="100.791707" lat="13.889766">
                <ele>-4.188599</ele>
                <time>2004-07-31T10:14:11Z</time>
            </trkpt>
            <trkpt lon="100.791857" lat="13.889809">
                <ele>-3.707886</ele>
                <time>2004-07-31T10:14:14Z</time>
            </trkpt>
            <trkpt lon="100.792072" lat="13.889916">
                <ele>-3.227295</ele>
                <time>2004-07-31T10:14:19Z</time>
            </trkpt>
            <trkpt lon="100.792201" lat="13.890109">
                <ele>-2.746704</ele>
                <time>2004-07-31T10:14:24Z</time>
            </trkpt>
            <trkpt lon="100.792286" lat="13.890324">
                <ele>-1.304688</ele>
                <time>2004-07-31T10:14:30Z</time>
            </trkpt>
            <trkpt lon="100.792437" lat="13.890324">
                <ele>-2.265991</ele>
                <time>2004-07-31T10:14:34Z</time>
            </trkpt>
            <trkpt lon="100.792522" lat="13.890452">
                <ele>-2.265991</ele>
                <time>2004-07-31T10:14:38Z</time>
            </trkpt>
            <trkpt lon="100.792887" lat="13.891075">
                <ele>0.618042</ele>
                <time>2004-07-31T10:14:56Z</time>
            </trkpt>
            <trkpt lon="100.793381" lat="13.891890">
                <ele>0.137451</ele>
                <time>2004-07-31T10:15:17Z</time>
            </trkpt>
            <trkpt lon="100.793574" lat="13.891976">
                <ele>-0.343384</ele>
                <time>2004-07-31T10:15:27Z</time>
            </trkpt>
            <trkpt lon="100.793917" lat="13.891783">
                <ele>-0.343384</ele>
                <time>2004-07-31T10:15:43Z</time>
            </trkpt>
            <trkpt lon="100.794325" lat="13.891547">
                <ele>-0.824097</ele>
                <time>2004-07-31T10:15:58Z</time>
            </trkpt>
            <trkpt lon="100.794818" lat="13.891268">
                <ele>-0.824097</ele>
                <time>2004-07-31T10:16:15Z</time>
            </trkpt>
            <trkpt lon="100.795333" lat="13.891010">
                <ele>-2.265991</ele>
                <time>2004-07-31T10:16:30Z</time>
            </trkpt>
            <trkpt lon="100.795677" lat="13.890839">
                <ele>-3.227295</ele>
                <time>2004-07-31T10:16:40Z</time>
            </trkpt>
            <trkpt lon="100.795720" lat="13.890452">
                <ele>-0.824097</ele>
                <time>2004-07-31T10:16:51Z</time>
            </trkpt>
            <trkpt lon="100.795419" lat="13.889787">
                <ele>0.137451</ele>
                <time>2004-07-31T10:17:09Z</time>
            </trkpt>
            <trkpt lon="100.795248" lat="13.889530">
                <ele>0.137451</ele>
                <time>2004-07-31T10:17:16Z</time>
            </trkpt>
            <trkpt lon="100.794990" lat="13.889294">
                <ele>0.618042</ele>
                <time>2004-07-31T10:17:24Z</time>
            </trkpt>
            <trkpt lon="100.795119" lat="13.889143">
                <ele>0.137451</ele>
                <time>2004-07-31T10:17:34Z</time>
            </trkpt>
            <trkpt lon="100.795012" lat="13.888779">
                <ele>-0.824097</ele>
                <time>2004-07-31T10:17:43Z</time>
            </trkpt>
            <trkpt lon="100.794904" lat="13.887877">
                <ele>0.618042</ele>
                <time>2004-07-31T10:18:02Z</time>
            </trkpt>
            <trkpt lon="100.794904" lat="13.887877">
                <ele>0.618042</ele>
                <time>2004-07-31T10:18:13Z</time>
            </trkpt>
            <trkpt lon="100.794926" lat="13.887877">
                <ele>3.021240</ele>
                <time>2004-07-31T10:19:14Z</time>
            </trkpt>
            <trkpt lon="100.794904" lat="13.887706">
                <ele>4.463257</ele>
                <time>2004-07-31T10:19:44Z</time>
            </trkpt>
            <trkpt lon="100.794754" lat="13.887062">
                <ele>3.501953</ele>
                <time>2004-07-31T10:20:00Z</time>
            </trkpt>
            <trkpt lon="100.794282" lat="13.886290">
                <ele>1.098633</ele>
                <time>2004-07-31T10:20:19Z</time>
            </trkpt>
            <trkpt lon="100.793982" lat="13.885989">
                <ele>1.098633</ele>
                <time>2004-07-31T10:20:27Z</time>
            </trkpt>
            <trkpt lon="100.793424" lat="13.885882">
                <ele>1.098633</ele>
                <time>2004-07-31T10:20:38Z</time>
            </trkpt>
            <trkpt lon="100.793016" lat="13.885753">
                <ele>1.098633</ele>
                <time>2004-07-31T10:20:46Z</time>
            </trkpt>
            <trkpt lon="100.792844" lat="13.885474">
                <ele>1.098633</ele>
                <time>2004-07-31T10:20:52Z</time>
            </trkpt>
            <trkpt lon="100.792673" lat="13.884466">
                <ele>2.540649</ele>
                <time>2004-07-31T10:21:10Z</time>
            </trkpt>
            <trkpt lon="100.792522" lat="13.883994">
                <ele>0.618042</ele>
                <time>2004-07-31T10:21:18Z</time>
            </trkpt>
            <trkpt lon="100.791965" lat="13.883371">
                <ele>-1.785278</ele>
                <time>2004-07-31T10:21:32Z</time>
            </trkpt>
            <trkpt lon="100.791428" lat="13.882535">
                <ele>0.137451</ele>
                <time>2004-07-31T10:21:49Z</time>
            </trkpt>
            <trkpt lon="100.790806" lat="13.881719">
                <ele>0.618042</ele>
                <time>2004-07-31T10:22:07Z</time>
            </trkpt>
            <trkpt lon="100.790162" lat="13.881204">
                <ele>-0.824097</ele>
                <time>2004-07-31T10:22:22Z</time>
            </trkpt>
            <trkpt lon="100.789518" lat="13.880968">
                <ele>0.618042</ele>
                <time>2004-07-31T10:22:36Z</time>
            </trkpt>
            <trkpt lon="100.789218" lat="13.880882">
                <ele>0.618042</ele>
                <time>2004-07-31T10:22:42Z</time>
            </trkpt>
            <trkpt lon="100.789025" lat="13.880775">
                <ele>0.618042</ele>
                <time>2004-07-31T10:22:46Z</time>
            </trkpt>
            <trkpt lon="100.788810" lat="13.880582">
                <ele>2.060059</ele>
                <time>2004-07-31T10:22:51Z</time>
            </trkpt>
            <trkpt lon="100.788682" lat="13.880389">
                <ele>1.579346</ele>
                <time>2004-07-31T10:22:55Z</time>
            </trkpt>
            <trkpt lon="100.788510" lat="13.880239">
                <ele>1.579346</ele>
                <time>2004-07-31T10:22:59Z</time>
            </trkpt>
            <trkpt lon="100.788338" lat="13.880153">
                <ele>1.098633</ele>
                <time>2004-07-31T10:23:02Z</time>
            </trkpt>
            <trkpt lon="100.788059" lat="13.880110">
                <ele>1.098633</ele>
                <time>2004-07-31T10:23:07Z</time>
            </trkpt>
            <trkpt lon="100.787802" lat="13.880067">
                <ele>-0.824097</ele>
                <time>2004-07-31T10:23:16Z</time>
            </trkpt>
            <trkpt lon="100.787802" lat="13.880067">
                <ele>-0.824097</ele>
                <time>2004-07-31T10:23:17Z</time>
            </trkpt>
            <trkpt lon="100.787823" lat="13.880153">
                <ele>-0.824097</ele>
                <time>2004-07-31T10:23:22Z</time>
            </trkpt>
            <trkpt lon="100.787759" lat="13.880281">
                <ele>-1.785278</ele>
                <time>2004-07-31T10:23:34Z</time>
            </trkpt>
            <trkpt lon="100.787694" lat="13.880260">
                <ele>-1.304688</ele>
                <time>2004-07-31T10:23:38Z</time>
            </trkpt>
            <trkpt lon="100.787287" lat="13.880110">
                <ele>-0.824097</ele>
                <time>2004-07-31T10:23:51Z</time>
            </trkpt>
            <trkpt lon="100.786622" lat="13.879831">
                <ele>-1.304688</ele>
                <time>2004-07-31T10:24:07Z</time>
            </trkpt>
            <trkpt lon="100.785871" lat="13.879552">
                <ele>-0.824097</ele>
                <time>2004-07-31T10:24:24Z</time>
            </trkpt>
            <trkpt lon="100.784926" lat="13.879101">
                <ele>-0.343384</ele>
                <time>2004-07-31T10:24:44Z</time>
            </trkpt>
            <trkpt lon="100.784004" lat="13.878715">
                <ele>0.618042</ele>
                <time>2004-07-31T10:25:02Z</time>
            </trkpt>
            <trkpt lon="100.783124" lat="13.878071">
                <ele>2.540649</ele>
                <time>2004-07-31T10:25:21Z</time>
            </trkpt>
            <trkpt lon="100.782201" lat="13.877256">
                <ele>2.540649</ele>
                <time>2004-07-31T10:25:42Z</time>
            </trkpt>
            <trkpt lon="100.781987" lat="13.877063">
                <ele>3.021240</ele>
                <time>2004-07-31T10:25:48Z</time>
            </trkpt>
            <trkpt lon="100.781987" lat="13.877084">
                <ele>3.501953</ele>
                <time>2004-07-31T10:25:52Z</time>
            </trkpt>
            <trkpt lon="100.782094" lat="13.877192">
                <ele>2.540649</ele>
                <time>2004-07-31T10:26:10Z</time>
            </trkpt>
            <trkpt lon="100.782094" lat="13.877149">
                <ele>4.943848</ele>
                <time>2004-07-31T10:26:38Z</time>
            </trkpt>
            <trkpt lon="100.782073" lat="13.877149">
                <ele>5.424561</ele>
                <time>2004-07-31T10:26:41Z</time>
            </trkpt>
            <trkpt lon="100.782030" lat="13.877106">
                <ele>5.424561</ele>
                <time>2004-07-31T10:26:45Z</time>
            </trkpt>
            <trkpt lon="100.781772" lat="13.876891">
                <ele>3.021240</ele>
                <time>2004-07-31T10:26:57Z</time>
            </trkpt>
            <trkpt lon="100.781772" lat="13.876827">
                <ele>3.021240</ele>
                <time>2004-07-31T10:27:01Z</time>
            </trkpt>
            <trkpt lon="100.781987" lat="13.876483">
                <ele>0.618042</ele>
                <time>2004-07-31T10:27:14Z</time>
            </trkpt>
            <trkpt lon="100.782223" lat="13.875840">
                <ele>-3.227295</ele>
                <time>2004-07-31T10:27:31Z</time>
            </trkpt>
            <trkpt lon="100.782416" lat="13.875217">
                <ele>-3.227295</ele>
                <time>2004-07-31T10:27:45Z</time>
            </trkpt>
            <trkpt lon="100.782502" lat="13.875003">
                <ele>-3.227295</ele>
                <time>2004-07-31T10:27:50Z</time>
            </trkpt>
            <trkpt lon="100.782759" lat="13.874316">
                <ele>-3.707886</ele>
                <time>2004-07-31T10:28:07Z</time>
            </trkpt>
            <trkpt lon="100.782759" lat="13.874016">
                <ele>-3.227295</ele>
                <time>2004-07-31T10:28:17Z</time>
            </trkpt>
            <trkpt lon="100.782716" lat="13.873715">
                <ele>-2.265991</ele>
                <time>2004-07-31T10:28:24Z</time>
            </trkpt>
            <trkpt lon="100.782759" lat="13.873522">
                <ele>-1.304688</ele>
                <time>2004-07-31T10:28:28Z</time>
            </trkpt>
            <trkpt lon="100.783145" lat="13.872514">
                <ele>-2.746704</ele>
                <time>2004-07-31T10:28:47Z</time>
            </trkpt>
            <trkpt lon="100.783639" lat="13.871162">
                <ele>-1.304688</ele>
                <time>2004-07-31T10:29:09Z</time>
            </trkpt>
            <trkpt lon="100.784175" lat="13.869832">
                <ele>-1.785278</ele>
                <time>2004-07-31T10:29:29Z</time>
            </trkpt>
            <trkpt lon="100.784197" lat="13.869359">
                <ele>-1.785278</ele>
                <time>2004-07-31T10:29:37Z</time>
            </trkpt>
            <trkpt lon="100.784690" lat="13.868179">
                <ele>-0.343384</ele>
                <time>2004-07-31T10:29:56Z</time>
            </trkpt>
            <trkpt lon="100.785248" lat="13.866827">
                <ele>-1.304688</ele>
                <time>2004-07-31T10:30:17Z</time>
            </trkpt>
            <trkpt lon="100.785871" lat="13.865411">
                <ele>-1.304688</ele>
                <time>2004-07-31T10:30:40Z</time>
            </trkpt>
            <trkpt lon="100.786085" lat="13.864939">
                <ele>-0.824097</ele>
                <time>2004-07-31T10:30:51Z</time>
            </trkpt>
            <trkpt lon="100.786042" lat="13.864939">
                <ele>-0.824097</ele>
                <time>2004-07-31T10:30:59Z</time>
            </trkpt>
            <trkpt lon="100.785849" lat="13.864982">
                <ele>0.137451</ele>
                <time>2004-07-31T10:31:12Z</time>
            </trkpt>
            <trkpt lon="100.785334" lat="13.864746">
                <ele>0.137451</ele>
                <time>2004-07-31T10:31:28Z</time>
            </trkpt>
            <trkpt lon="100.785334" lat="13.864746">
                <ele>1.098633</ele>
                <time>2004-07-31T10:31:38Z</time>
            </trkpt>
            <trkpt lon="100.785313" lat="13.864746">
                <ele>1.098633</ele>
                <time>2004-07-31T10:31:39Z</time>
            </trkpt>
            <trkpt lon="100.785227" lat="13.864746">
                <ele>0.618042</ele>
                <time>2004-07-31T10:31:44Z</time>
            </trkpt>
            <trkpt lon="100.784626" lat="13.864510">
                <ele>0.618042</ele>
                <time>2004-07-31T10:32:00Z</time>
            </trkpt>
            <trkpt lon="100.784540" lat="13.864510">
                <ele>0.618042</ele>
                <time>2004-07-31T10:32:10Z</time>
            </trkpt>
            <trkpt lon="100.784562" lat="13.864510">
                <ele>1.579346</ele>
                <time>2004-07-31T10:32:16Z</time>
            </trkpt>
            <trkpt lon="100.784712" lat="13.864532">
                <ele>1.579346</ele>
                <time>2004-07-31T10:32:24Z</time>
            </trkpt>
            <trkpt lon="100.785184" lat="13.864703">
                <ele>1.579346</ele>
                <time>2004-07-31T10:32:36Z</time>
            </trkpt>
            <trkpt lon="100.785248" lat="13.864703">
                <ele>2.060059</ele>
                <time>2004-07-31T10:32:38Z</time>
            </trkpt>
            <trkpt lon="100.785356" lat="13.864639">
                <ele>2.060059</ele>
                <time>2004-07-31T10:32:42Z</time>
            </trkpt>
            <trkpt lon="100.785763" lat="13.863738">
                <ele>0.137451</ele>
                <time>2004-07-31T10:33:04Z</time>
            </trkpt>
            <trkpt lon="100.786064" lat="13.863094">
                <ele>-0.824097</ele>
                <time>2004-07-31T10:33:22Z</time>
            </trkpt>
            <trkpt lon="100.786235" lat="13.862686">
                <ele>1.098633</ele>
                <time>2004-07-31T10:33:36Z</time>
            </trkpt>
            <trkpt lon="100.786386" lat="13.862343">
                <ele>-1.304688</ele>
                <time>2004-07-31T10:33:51Z</time>
            </trkpt>
            <trkpt lon="100.786493" lat="13.862064">
                <ele>-0.824097</ele>
                <time>2004-07-31T10:34:06Z</time>
            </trkpt>
            <trkpt lon="100.786557" lat="13.861871">
                <ele>1.098633</ele>
                <time>2004-07-31T10:34:31Z</time>
            </trkpt>
            <trkpt lon="100.786729" lat="13.861506">
                <ele>-0.343384</ele>
                <time>2004-07-31T10:34:46Z</time>
            </trkpt>
            <trkpt lon="100.786901" lat="13.861055">
                <ele>0.137451</ele>
                <time>2004-07-31T10:35:01Z</time>
            </trkpt>
            <trkpt lon="100.787115" lat="13.860540">
                <ele>-0.824097</ele>
                <time>2004-07-31T10:35:19Z</time>
            </trkpt>
            <trkpt lon="100.787201" lat="13.860283">
                <ele>1.579346</ele>
                <time>2004-07-31T10:35:33Z</time>
            </trkpt>
            <trkpt lon="100.787201" lat="13.860283">
                <ele>1.579346</ele>
                <time>2004-07-31T10:35:53Z</time>
            </trkpt>
            <trkpt lon="100.787373" lat="13.859940">
                <ele>1.098633</ele>
                <time>2004-07-31T10:36:08Z</time>
            </trkpt>
            <trkpt lon="100.787587" lat="13.859360">
                <ele>0.137451</ele>
                <time>2004-07-31T10:36:23Z</time>
            </trkpt>
            <trkpt lon="100.787930" lat="13.859296">
                <ele>1.579346</ele>
                <time>2004-07-31T10:36:32Z</time>
            </trkpt>
            <trkpt lon="100.788381" lat="13.859317">
                <ele>1.098633</ele>
                <time>2004-07-31T10:36:44Z</time>
            </trkpt>
            <trkpt lon="100.788767" lat="13.859339">
                <ele>2.540649</ele>
                <time>2004-07-31T10:36:58Z</time>
            </trkpt>
            <trkpt lon="100.788832" lat="13.859210">
                <ele>2.060059</ele>
                <time>2004-07-31T10:37:03Z</time>
            </trkpt>
            <trkpt lon="100.789111" lat="13.858523">
                <ele>2.060059</ele>
                <time>2004-07-31T10:37:19Z</time>
            </trkpt>
            <trkpt lon="100.789561" lat="13.857558">
                <ele>2.060059</ele>
                <time>2004-07-31T10:37:38Z</time>
            </trkpt>
            <trkpt lon="100.790033" lat="13.856549">
                <ele>1.579346</ele>
                <time>2004-07-31T10:37:58Z</time>
            </trkpt>
            <trkpt lon="100.790505" lat="13.855541">
                <ele>1.098633</ele>
                <time>2004-07-31T10:38:18Z</time>
            </trkpt>
            <trkpt lon="100.790935" lat="13.854597">
                <ele>1.098633</ele>
                <time>2004-07-31T10:38:36Z</time>
            </trkpt>
            <trkpt lon="100.791299" lat="13.853610">
                <ele>1.098633</ele>
                <time>2004-07-31T10:38:54Z</time>
            </trkpt>
            <trkpt lon="100.791728" lat="13.852708">
                <ele>1.579346</ele>
                <time>2004-07-31T10:39:12Z</time>
            </trkpt>
            <trkpt lon="100.792265" lat="13.851550">
                <ele>1.098633</ele>
                <time>2004-07-31T10:39:35Z</time>
            </trkpt>
            <trkpt lon="100.792780" lat="13.850455">
                <ele>2.540649</ele>
                <time>2004-07-31T10:39:57Z</time>
            </trkpt>
            <trkpt lon="100.793402" lat="13.849168">
                <ele>2.060059</ele>
                <time>2004-07-31T10:40:22Z</time>
            </trkpt>
            <trkpt lon="100.793703" lat="13.848352">
                <ele>1.098633</ele>
                <time>2004-07-31T10:40:40Z</time>
            </trkpt>
            <trkpt lon="100.793724" lat="13.848331">
                <ele>1.579346</ele>
                <time>2004-07-31T10:40:42Z</time>
            </trkpt>
            <trkpt lon="100.794046" lat="13.848503">
                <ele>1.098633</ele>
                <time>2004-07-31T10:40:53Z</time>
            </trkpt>
            <trkpt lon="100.794840" lat="13.848932">
                <ele>1.098633</ele>
                <time>2004-07-31T10:41:08Z</time>
            </trkpt>
            <trkpt lon="100.796320" lat="13.849704">
                <ele>3.021240</ele>
                <time>2004-07-31T10:41:34Z</time>
            </trkpt>
            <trkpt lon="100.797393" lat="13.850262">
                <ele>2.540649</ele>
                <time>2004-07-31T10:41:53Z</time>
            </trkpt>
            <trkpt lon="100.798573" lat="13.850820">
                <ele>3.501953</ele>
                <time>2004-07-31T10:42:13Z</time>
            </trkpt>
            <trkpt lon="100.799239" lat="13.851120">
                <ele>3.501953</ele>
                <time>2004-07-31T10:42:26Z</time>
            </trkpt>
            <trkpt lon="100.800440" lat="13.851657">
                <ele>3.021240</ele>
                <time>2004-07-31T10:42:46Z</time>
            </trkpt>
            <trkpt lon="100.801599" lat="13.852172">
                <ele>3.982666</ele>
                <time>2004-07-31T10:43:06Z</time>
            </trkpt>
            <trkpt lon="100.801835" lat="13.852236">
                <ele>3.501953</ele>
                <time>2004-07-31T10:43:11Z</time>
            </trkpt>
            <trkpt lon="100.802007" lat="13.852193">
                <ele>3.021240</ele>
                <time>2004-07-31T10:43:16Z</time>
            </trkpt>
            <trkpt lon="100.802093" lat="13.851936">
                <ele>2.060059</ele>
                <time>2004-07-31T10:43:22Z</time>
            </trkpt>
            <trkpt lon="100.802093" lat="13.851764">
                <ele>1.579346</ele>
                <time>2004-07-31T10:43:26Z</time>
            </trkpt>
            <trkpt lon="100.802350" lat="13.851249">
                <ele>0.137451</ele>
                <time>2004-07-31T10:43:42Z</time>
            </trkpt>
            <trkpt lon="100.802350" lat="13.851228">
                <ele>0.137451</ele>
                <time>2004-07-31T10:43:43Z</time>
            </trkpt>
            <trkpt lon="100.802350" lat="13.851249">
                <ele>0.618042</ele>
                <time>2004-07-31T10:43:45Z</time>
            </trkpt>
            <trkpt lon="100.802372" lat="13.851206">
                <ele>1.098633</ele>
                <time>2004-07-31T10:43:49Z</time>
            </trkpt>
            <trkpt lon="100.802457" lat="13.851078">
                <ele>4.463257</ele>
                <time>2004-07-31T10:44:07Z</time>
            </trkpt>
            <trkpt lon="100.802522" lat="13.850970">
                <ele>3.501953</ele>
                <time>2004-07-31T10:44:19Z</time>
            </trkpt>
            <trkpt lon="100.802543" lat="13.850927">
                <ele>2.060059</ele>
                <time>2004-07-31T10:44:22Z</time>
            </trkpt>
            <trkpt lon="100.802650" lat="13.850906">
                <ele>1.579346</ele>
                <time>2004-07-31T10:44:27Z</time>
            </trkpt>
            <trkpt lon="100.802693" lat="13.850927">
                <ele>2.060059</ele>
                <time>2004-07-31T10:44:42Z</time>
            </trkpt>
            <trkpt lon="100.802608" lat="13.851013">
                <ele>13.115112</ele>
                <time>2004-07-31T11:06:48Z</time>
            </trkpt>
            <trkpt lon="100.802650" lat="13.851013">
                <ele>6.385864</ele>
                <time>2004-07-31T11:08:59Z</time>
            </trkpt>
        </trkseg>
    </trk>
</gpx>